Wetterdaten: Freitag, 18.09.2020
Datum Zeit Temp. Aussen Temp. o. S. Temp +5cm Feuchte Auss Luftdruck Regen Sonnenschein Regendauer Solar Windben Empfang
18.09.2020 00:00 13,1 C 11,7 C 11,7 C 71 % 1026,7 hPa 0,0 l/m 0 min 0 min 0 W/m 6,4 km/h (2 Bft) 100,00 %
18.09.2020 00:02 13,1 C 11,7 C 11,7 C 72 % 1026,6 hPa 0,0 l/m 0 min 0 min 0 W/m 6,4 km/h (2 Bft) 100,00 %
18.09.2020 00:04 13,1 C 12,2 C 11,7 C 72 % 1026,5 hPa 0,0 l/m 0 min 0 min 0 W/m 12,9 km/h (3 Bft) 100,00 %
18.09.2020 00:07 13,1 C 11,7 C 11,7 C 72 % 1026,5 hPa 0,0 l/m 0 min 0 min 0 W/m 6,4 km/h (2 Bft) 98,57 %
18.09.2020 00:08 13,1 C 11,7 C 11,7 C 72 % 1026,5 hPa 0,0 l/m 0 min 0 min 0 W/m 3,2 km/h (1 Bft) 100,00 %
18.09.2020 00:10 13,1 C 11,7 C 11,7 C 72 % 1026,5 hPa 0,0 l/m 0 min 0 min 0 W/m 6,4 km/h (2 Bft) 97,87 %
18.09.2020 00:12 13,0 C 11,7 C 11,7 C 72 % 1026,6 hPa 0,0 l/m 0 min 0 min 0 W/m 3,2 km/h (1 Bft) 97,87 %
18.09.2020 00:14 13,0 C 11,7 C 11,7 C 72 % 1026,5 hPa 0,0 l/m 0 min 0 min 0 W/m 9,7 km/h (2 Bft) 95,74 %
18.09.2020 00:16 13,0 C 11,7 C 11,7 C 72 % 1026,5 hPa 0,0 l/m 0 min 0 min 0 W/m 6,4 km/h (2 Bft) 95,74 %
18.09.2020 00:18 12,9 C 11,7 C 11,7 C 72 % 1026,5 hPa 0,0 l/m 0 min 0 min 0 W/m 0,0 km/h (0 Bft) 95,65 %
18.09.2020 00:20 12,9 C 11,7 C 11,7 C 72 % 1026,5 hPa 0,0 l/m 0 min 0 min 0 W/m 6,4 km/h (2 Bft) 95,74 %
18.09.2020 00:22 12,9 C 11,7 C 11,7 C 72 % 1026,5 hPa 0,0 l/m 0 min 0 min 0 W/m 12,9 km/h (3 Bft) 95,74 %
18.09.2020 00:24 12,9 C 11,7 C 11,7 C 72 % 1026,5 hPa 0,0 l/m 0 min 0 min 0 W/m 3,2 km/h (1 Bft) 95,74 %
18.09.2020 00:26 12,9 C 11,7 C 11,7 C 72 % 1026,4 hPa 0,0 l/m 0 min 0 min 0 W/m 0,0 km/h (0 Bft) 93,62 %
18.09.2020 00:28 12,8 C 11,7 C 11,7 C 72 % 1026,5 hPa 0,0 l/m 0 min 0 min 0 W/m 3,2 km/h (1 Bft) 95,74 %
18.09.2020 00:30 12,8 C 11,7 C 11,7 C 72 % 1026,5 hPa 0,0 l/m 0 min 0 min 0 W/m 0,0 km/h (0 Bft) 95,65 %
18.09.2020 00:32 12,8 C 11,7 C 11,7 C 72 % 1026,5 hPa 0,0 l/m 0 min 0 min 0 W/m 6,4 km/h (2 Bft) 95,74 %
18.09.2020 00:34 12,8 C 11,7 C 11,7 C 72 % 1026,4 hPa 0,0 l/m 0 min 0 min 0 W/m 9,7 km/h (2 Bft) 95,74 %
18.09.2020 00:36 12,8 C 11,1 C 11,7 C 73 % 1026,4 hPa 0,0 l/m 0 min 0 min 0 W/m 3,2 km/h (1 Bft) 95,74 %
18.09.2020 00:38 12,8 C 11,1 C 11,7 C 73 % 1026,4 hPa 0,0 l/m 0 min 0 min 0 W/m 0,0 km/h (0 Bft) 95,74 %
18.09.2020 00:40 12,7 C 11,1 C 11,7 C 73 % 1026,4 hPa 0,0 l/m 0 min 0 min 0 W/m 6,4 km/h (2 Bft) 93,48 %
18.09.2020 00:42 12,7 C 11,1 C 11,7 C 72 % 1026,4 hPa 0,0 l/m 0 min 0 min 0 W/m 12,9 km/h (3 Bft) 95,74 %
18.09.2020 00:44 12,7 C 11,1 C 11,7 C 73 % 1026,4 hPa 0,0 l/m 0 min 0 min 0 W/m 6,4 km/h (2 Bft) 95,74 %
18.09.2020 00:46 12,7 C 11,1 C 11,7 C 72 % 1026,4 hPa 0,0 l/m 0 min 0 min 0 W/m 6,4 km/h (2 Bft) 93,62 %
18.09.2020 00:48 12,6 C 11,1 C 11,1 C 72 % 1026,4 hPa 0,0 l/m 0 min 0 min 0 W/m 6,4 km/h (2 Bft) 95,74 %
18.09.2020 00:50 12,6 C 11,1 C 11,1 C 72 % 1026,4 hPa 0,0 l/m 0 min 0 min 0 W/m 0,0 km/h (0 Bft) 97,87 %
18.09.2020 00:52 12,6 C 11,1 C 11,1 C 73 % 1026,3 hPa 0,0 l/m 0 min 0 min 0 W/m 0,0 km/h (0 Bft) 97,83 %
18.09.2020 00:54 12,6 C 11,1 C 11,1 C 73 % 1026,3 hPa 0,0 l/m 0 min 0 min 0 W/m 0,0 km/h (0 Bft) 97,87 %
18.09.2020 00:56 12,5 C 11,1 C 11,1 C 73 % 1026,4 hPa 0,0 l/m 0 min 0 min 0 W/m 0,0 km/h (0 Bft) 97,87 %
18.09.2020 00:58 12,5 C 11,1 C 11,1 C 73 % 1026,3 hPa 0,0 l/m 0 min 0 min 0 W/m 0,0 km/h (0 Bft) 97,87 %
18.09.2020 01:00 12,5 C 11,1 C 11,1 C 73 % 1026,3 hPa 0,0 l/m 0 min 0 min 0 W/m 0,0 km/h (0 Bft) 97,87 %
18.09.2020 01:02 12,4 C 11,1 C 11,1 C 73 % 1026,2 hPa 0,0 l/m 0 min 0 min 0 W/m 0,0 km/h (0 Bft) 97,87 %
18.09.2020 01:04 12,4 C 10,6 C 11,1 C 73 % 1026,2 hPa 0,0 l/m 0 min 0 min 0 W/m 0,0 km/h (0 Bft) 95,65 %
18.09.2020 01:06 12,4 C 10,6 C 11,1 C 73 % 1026,3 hPa 0,0 l/m 0 min 0 min 0 W/m 3,2 km/h (1 Bft) 93,62 %
18.09.2020 01:08 12,3 C 10,6 C 11,1 C 73 % 1026,3 hPa 0,0 l/m 0 min 0 min 0 W/m 0,0 km/h (0 Bft) 93,62 %
18.09.2020 01:10 12,3 C 10,6 C 11,1 C 73 % 1026,3 hPa 0,0 l/m 0 min 0 min 0 W/m 0,0 km/h (0 Bft) 95,74 %
18.09.2020 01:12 12,3 C 10,6 C 11,1 C 73 % 1026,3 hPa 0,0 l/m 0 min 0 min 0 W/m 0,0 km/h (0 Bft) 95,74 %
18.09.2020 01:14 12,3 C 10,6 C 11,1 C 73 % 1026,3 hPa 0,0 l/m 0 min 0 min 0 W/m 0,0 km/h (0 Bft) 97,87 %
18.09.2020 01:16 12,2 C 10,6 C 11,1 C 74 % 1026,3 hPa 0,0 l/m 0 min 0 min 0 W/m 0,0 km/h (0 Bft) 95,65 %
18.09.2020 01:18 12,2 C 10,6 C 10,6 C 74 % 1026,3 hPa 0,0 l/m 0 min 0 min 0 W/m 0,0 km/h (0 Bft) 95,74 %
18.09.2020 01:20 12,2 C 10,6 C 10,6 C 74 % 1026,3 hPa 0,0 l/m 0 min 0 min 0 W/m 0,0 km/h (0 Bft) 97,87 %
18.09.2020 01:22 12,1 C 10,6 C 10,6 C 74 % 1026,2 hPa 0,0 l/m 0 min 0 min 0 W/m 0,0 km/h (0 Bft) 97,87 %
18.09.2020 01:24 12,1 C 10,6 C 10,6 C 74 % 1026,3 hPa 0,0 l/m 0 min 0 min 0 W/m 6,4 km/h (2 Bft) 97,87 %
18.09.2020 01:26 12,1 C 10,6 C 10,6 C 74 % 1026,3 hPa 0,0 l/m 0 min 0 min 0 W/m 3,2 km/h (1 Bft) 95,74 %
18.09.2020 01:28 12,1 C 10,6 C 10,6 C 74 % 1026,2 hPa 0,0 l/m 0 min 0 min 0 W/m 0,0 km/h (0 Bft) 95,65 %
18.09.2020 01:30 12,0 C 10,6 C 10,6 C 74 % 1026,2 hPa 0,0 l/m 0 min 0 min 0 W/m 3,2 km/h (1 Bft) 95,74 %
18.09.2020 01:32 12,0 C 10,6 C 10,6 C 74 % 1026,1 hPa 0,0 l/m 0 min 0 min 0 W/m 6,4 km/h (2 Bft) 98,15 %
18.09.2020 01:34 11,9 C 10,6 C 10,6 C 74 % 1026,2 hPa 0,0 l/m 0 min 0 min 0 W/m 3,2 km/h (1 Bft) 95,65 %
18.09.2020 01:36 11,9 C 10,6 C 10,6 C 74 % 1026,2 hPa 0,0 l/m 0 min 0 min 0 W/m 0,0 km/h (0 Bft) 97,87 %
18.09.2020 01:38 11,9 C 10,6 C 10,6 C 74 % 1026,2 hPa 0,0 l/m 0 min 0 min 0 W/m 0,0 km/h (0 Bft) 97,87 %
18.09.2020 01:40 11,8 C 10,0 C 10,6 C 74 % 1026,2 hPa 0,0 l/m 0 min 0 min 0 W/m 0,0 km/h (0 Bft) 97,87 %
18.09.2020 01:42 11,8 C 10,0 C 10,6 C 75 % 1026,1 hPa 0,0 l/m 0 min 0 min 0 W/m 0,0 km/h (0 Bft) 97,87 %
18.09.2020 01:44 11,8 C 10,0 C 10,6 C 75 % 1026,2 hPa 0,0 l/m 0 min 0 min 0 W/m 0,0 km/h (0 Bft) 93,62 %
18.09.2020 01:46 11,7 C 10,0 C 10,0 C 75 % 1026,1 hPa 0,0 l/m 0 min 0 min 0 W/m 0,0 km/h (0 Bft) 97,83 %
18.09.2020 01:48 11,7 C 10,0 C 10,0 C 75 % 1026,1 hPa 0,0 l/m 0 min 0 min 0 W/m 0,0 km/h (0 Bft) 97,87 %
18.09.2020 01:50 11,7 C 10,0 C 10,0 C 75 % 1026,1 hPa 0,0 l/m 0 min 0 min 0 W/m 0,0 km/h (0 Bft) 97,87 %
18.09.2020 01:52 11,7 C 10,0 C 10,0 C 75 % 1026,1 hPa 0,0 l/m 0 min 0 min 0 W/m 0,0 km/h (0 Bft) 97,87 %
18.09.2020 01:54 11,6 C 10,0 C 10,0 C 75 % 1026,2 hPa 0,0 l/m 0 min 0 min 0 W/m 0,0 km/h (0 Bft) 95,74 %
18.09.2020 01:56 11,6 C 10,0 C 10,0 C 75 % 1026,2 hPa 0,0 l/m 0 min 0 min 0 W/m 0,0 km/h (0 Bft) 97,87 %
18.09.2020 01:58 11,6 C 10,0 C 10,0 C 75 % 1026,2 hPa 0,0 l/m 0 min 0 min 0 W/m 0,0 km/h (0 Bft) 100,00 %
18.09.2020 02:00 11,6 C 10,0 C 10,0 C 75 % 1026,2 hPa 0,0 l/m 0 min 0 min 0 W/m 0,0 km/h (0 Bft) 100,00 %
18.09.2020 02:02 11,5 C 10,0 C 10,0 C 75 % 1026,1 hPa 0,0 l/m 0 min 0 min 0 W/m 0,0 km/h (0 Bft) 95,74 %
18.09.2020 02:04 11,4 C 9,4 C 10,0 C 75 % 1026,1 hPa 0,0 l/m 0 min 0 min 0 W/m 0,0 km/h (0 Bft) 100,00 %
18.09.2020 02:06 11,4 C 9,4 C 9,4 C 75 % 1026,2 hPa 0,0 l/m 0 min 0 min 0 W/m 3,2 km/h (1 Bft) 100,00 %
18.09.2020 02:08 11,4 C 9,4 C 9,4 C 76 % 1026,1 hPa 0,0 l/m 0 min 0 min 0 W/m 0,0 km/h (0 Bft) 100,00 %
18.09.2020 02:10 11,4 C 9,4 C 9,4 C 76 % 1026,1 hPa 0,0 l/m 0 min 0 min 0 W/m 0,0 km/h (0 Bft) 97,83 %
18.09.2020 02:12 11,3 C 9,4 C 9,4 C 76 % 1026,1 hPa 0,0 l/m 0 min 0 min 0 W/m 0,0 km/h (0 Bft) 100,00 %
18.09.2020 02:14 11,3 C 9,4 C 9,4 C 76 % 1026,0 hPa 0,0 l/m 0 min 0 min 0 W/m 0,0 km/h (0 Bft) 97,87 %
18.09.2020 02:16 11,3 C 9,4 C 9,4 C 76 % 1026,0 hPa 0,0 l/m 0 min 0 min 0 W/m 0,0 km/h (0 Bft) 95,74 %
18.09.2020 02:18 11,2 C 9,4 C 9,4 C 76 % 1026,0 hPa 0,0 l/m 0 min 0 min 0 W/m 0,0 km/h (0 Bft) 100,00 %
18.09.2020 02:20 11,2 C 9,4 C 9,4 C 76 % 1026,0 hPa 0,0 l/m 0 min 0 min 0 W/m 0,0 km/h (0 Bft) 97,87 %
18.09.2020 02:22 11,1 C 9,4 C 9,4 C 76 % 1026,0 hPa 0,0 l/m 0 min 0 min 0 W/m 3,2 km/h (1 Bft) 95,65 %
18.09.2020 02:24 11,1 C 9,4 C 9,4 C 76 % 1026,0 hPa 0,0 l/m 0 min 0 min 0 W/m 0,0 km/h (0 Bft) 97,87 %
18.09.2020 02:26 11,1 C 9,4 C 9,4 C 77 % 1026,0 hPa 0,0 l/m 0 min 0 min 0 W/m 0,0 km/h (0 Bft) 93,62 %
18.09.2020 02:28 11,1 C 9,4 C 9,4 C 76 % 1026,0 hPa 0,0 l/m 0 min 0 min 0 W/m 0,0 km/h (0 Bft) 97,87 %
18.09.2020 02:30 11,0 C 9,4 C 9,4 C 77 % 1026,0 hPa 0,0 l/m 0 min 0 min 0 W/m 0,0 km/h (0 Bft) 100,00 %
18.09.2020 02:32 10,9 C 9,4 C 9,4 C 77 % 1025,9 hPa 0,0 l/m 0 min 0 min 0 W/m 0,0 km/h (0 Bft) 97,22 %
18.09.2020 02:34 10,9 C 9,4 C 9,4 C 77 % 1025,9 hPa 0,0 l/m 0 min 0 min 0 W/m 0,0 km/h (0 Bft) 100,00 %
18.09.2020 02:36 10,9 C 9,4 C 9,4 C 77 % 1025,8 hPa 0,0 l/m 0 min 0 min 0 W/m 0,0 km/h (0 Bft) 97,83 %
18.09.2020 02:38 10,9 C 9,4 C 9,4 C 77 % 1025,8 hPa 0,0 l/m 0 min 0 min 0 W/m 0,0 km/h (0 Bft) 97,87 %
18.09.2020 02:40 10,8 C 9,4 C 9,4 C 78 % 1025,8 hPa 0,0 l/m 0 min 0 min 0 W/m 0,0 km/h (0 Bft) 95,74 %
18.09.2020 02:42 10,8 C 8,9 C 9,4 C 78 % 1025,8 hPa 0,0 l/m 0 min 0 min 0 W/m 0,0 km/h (0 Bft) 95,74 %
18.09.2020 02:44 10,8 C 8,9 C 9,4 C 78 % 1025,8 hPa 0,0 l/m 0 min 0 min 0 W/m 0,0 km/h (0 Bft) 97,87 %
18.09.2020 02:46 10,7 C 9,4 C 9,4 C 78 % 1025,7 hPa 0,0 l/m 0 min 0 min 0 W/m 0,0 km/h (0 Bft) 95,74 %
18.09.2020 02:48 10,7 C 9,4 C 9,4 C 78 % 1025,7 hPa 0,0 l/m 0 min 0 min 0 W/m 0,0 km/h (0 Bft) 97,83 %
18.09.2020 02:50 10,7 C 8,9 C 9,4 C 78 % 1025,7 hPa 0,0 l/m 0 min 0 min 0 W/m 0,0 km/h (0 Bft) 93,62 %
18.09.2020 02:52 10,6 C 8,9 C 9,4 C 78 % 1025,7 hPa 0,0 l/m 0 min 0 min 0 W/m 0,0 km/h (0 Bft) 97,87 %
18.09.2020 02:54 10,6 C 8,9 C 9,4 C 78 % 1025,7 hPa 0,0 l/m 0 min 0 min 0 W/m 0,0 km/h (0 Bft) 97,87 %
18.09.2020 02:56 10,6 C 8,9 C 9,4 C 78 % 1025,7 hPa 0,0 l/m 0 min 0 min 0 W/m 3,2 km/h (1 Bft) 95,74 %
18.09.2020 02:58 10,6 C 9,4 C 9,4 C 78 % 1025,7 hPa 0,0 l/m 0 min 0 min 0 W/m 0,0 km/h (0 Bft) 97,87 %
18.09.2020 03:00 10,6 C 8,9 C 9,4 C 79 % 1025,7 hPa 0,0 l/m 0 min 0 min 0 W/m 0,0 km/h (0 Bft) 97,83 %
18.09.2020 03:02 10,5 C 8,9 C 9,4 C 79 % 1025,8 hPa 0,0 l/m 0 min 0 min 0 W/m 0,0 km/h (0 Bft) 95,74 %
18.09.2020 03:04 10,5 C 8,9 C 9,4 C 79 % 1025,8 hPa 0,0 l/m 0 min 0 min 0 W/m 0,0 km/h (0 Bft) 100,00 %
18.09.2020 03:06 10,5 C 8,9 C 9,4 C 79 % 1025,8 hPa 0,0 l/m 0 min 0 min 0 W/m 0,0 km/h (0 Bft) 98,31 %
18.09.2020 03:08 10,4 C 8,9 C 9,4 C 79 % 1025,8 hPa 0,0 l/m 0 min 0 min 0 W/m 0,0 km/h (0 Bft) 100,00 %
18.09.2020 03:10 10,4 C 8,9 C 9,4 C 79 % 1025,8 hPa 0,0 l/m 0 min 0 min 0 W/m 0,0 km/h (0 Bft) 100,00 %
18.09.2020 03:12 10,4 C 8,9 C 9,4 C 79 % 1025,8 hPa 0,0 l/m 0 min 0 min 0 W/m 0,0 km/h (0 Bft) 100,00 %
18.09.2020 03:14 10,4 C 8,9 C 9,4 C 79 % 1025,8 hPa 0,0 l/m 0 min 0 min 0 W/m 0,0 km/h (0 Bft) 97,83 %
18.09.2020 03:16 10,3 C 8,9 C 9,4 C 79 % 1025,8 hPa 0,0 l/m 0 min 0 min 0 W/m 0,0 km/h (0 Bft) 100,00 %
18.09.2020 03:18 10,3 C 8,9 C 8,9 C 79 % 1025,7 hPa 0,0 l/m 0 min 0 min 0 W/m 0,0 km/h (0 Bft) 100,00 %
18.09.2020 03:20 10,3 C 8,9 C 8,9 C 79 % 1025,6 hPa 0,0 l/m 0 min 0 min 0 W/m 0,0 km/h (0 Bft) 100,00 %
18.09.2020 03:22 10,3 C 8,9 C 8,9 C 80 % 1025,7 hPa 0,0 l/m 0 min 0 min 0 W/m 3,2 km/h (1 Bft) 100,00 %
18.09.2020 03:24 10,3 C 8,9 C 8,9 C 80 % 1025,6 hPa 0,0 l/m 0 min 0 min 0 W/m 0,0 km/h (0 Bft) 100,00 %
18.09.2020 03:26 10,2 C 8,9 C 8,9 C 80 % 1025,6 hPa 0,0 l/m 0 min 0 min 0 W/m 0,0 km/h (0 Bft) 100,00 %
18.09.2020 03:28 10,2 C 8,9 C 8,9 C 80 % 1025,6 hPa 0,0 l/m 0 min 0 min 0 W/m 0,0 km/h (0 Bft) 100,00 %
18.09.2020 03:30 10,2 C 8,3 C 8,9 C 79 % 1025,6 hPa 0,0 l/m 0 min 0 min 0 W/m 0,0 km/h (0 Bft) 100,00 %
18.09.2020 03:32 10,2 C 8,3 C 8,9 C 80 % 1025,6 hPa 0,0 l/m 0 min 0 min 0 W/m 0,0 km/h (0 Bft) 100,00 %
18.09.2020 03:34 10,1 C 8,3 C 8,9 C 80 % 1025,6 hPa 0,0 l/m 0 min 0 min 0 W/m 0,0 km/h (0 Bft) 100,00 %
18.09.2020 03:36 10,1 C 8,3 C 8,9 C 80 % 1025,6 hPa 0,0 l/m 0 min 0 min 0 W/m 0,0 km/h (0 Bft) 97,83 %
18.09.2020 03:38 10,1 C 8,3 C 8,9 C 80 % 1025,6 hPa 0,0 l/m 0 min 0 min 0 W/m 0,0 km/h (0 Bft) 100,00 %
18.09.2020 03:40 10,1 C 8,3 C 8,9 C 80 % 1025,6 hPa 0,0 l/m 0 min 0 min 0 W/m 0,0 km/h (0 Bft) 100,00 %
18.09.2020 03:42 10,1 C 8,3 C 8,3 C 80 % 1025,6 hPa 0,0 l/m 0 min 0 min 0 W/m 0,0 km/h (0 Bft) 100,00 %
18.09.2020 03:44 10,1 C 8,3 C 8,3 C 80 % 1025,5 hPa 0,0 l/m 0 min 0 min 0 W/m 0,0 km/h (0 Bft) 100,00 %
18.09.2020 03:46 10,0 C 8,3 C 8,3 C 80 % 1025,5 hPa 0,0 l/m 0 min 0 min 0 W/m 0,0 km/h (0 Bft) 100,00 %
18.09.2020 03:48 9,9 C 8,3 C 8,3 C 80 % 1025,6 hPa 0,0 l/m 0 min 0 min 0 W/m 0,0 km/h (0 Bft) 100,00 %
18.09.2020 03:50 9,9 C 8,3 C 8,3 C 80 % 1025,5 hPa 0,0 l/m 0 min 0 min 0 W/m 0,0 km/h (0 Bft) 100,00 %
18.09.2020 03:52 9,9 C 8,3 C 8,3 C 80 % 1025,5 hPa 0,0 l/m 0 min 0 min 0 W/m 0,0 km/h (0 Bft) 100,00 %
18.09.2020 03:54 9,9 C 8,3 C 8,3 C 80 % 1025,6 hPa 0,0 l/m 0 min 0 min 0 W/m 0,0 km/h (0 Bft) 100,00 %
18.09.2020 03:56 9,8 C 8,3 C 8,3 C 80 % 1025,5 hPa 0,0 l/m 0 min 0 min 0 W/m 0,0 km/h (0 Bft) 100,00 %
18.09.2020 03:58 9,8 C 7,8 C 7,8 C 80 % 1025,5 hPa 0,0 l/m 0 min 0 min 0 W/m 0,0 km/h (0 Bft) 100,00 %
18.09.2020 04:00 9,8 C 7,8 C 7,8 C 80 % 1025,5 hPa 0,0 l/m 0 min 0 min 0 W/m 0,0 km/h (0 Bft) 100,00 %
18.09.2020 04:02 9,8 C 7,8 C 7,8 C 80 % 1025,4 hPa 0,0 l/m 0 min 0 min 0 W/m 0,0 km/h (0 Bft) 100,00 %
18.09.2020 04:04 9,8 C 7,8 C 7,8 C 80 % 1025,4 hPa 0,0 l/m 0 min 0 min 0 W/m 0,0 km/h (0 Bft) 100,00 %
18.09.2020 04:06 9,7 C 7,8 C 7,8 C 80 % 1025,4 hPa 0,0 l/m 0 min 0 min 0 W/m 0,0 km/h (0 Bft) 100,00 %
18.09.2020 04:08 9,7 C 7,8 C 7,8 C 81 % 1025,5 hPa 0,0 l/m 0 min 0 min 0 W/m 0,0 km/h (0 Bft) 100,00 %
18.09.2020 04:10 9,7 C 7,8 C 7,8 C 81 % 1025,5 hPa 0,0 l/m 0 min 0 min 0 W/m 0,0 km/h (0 Bft) 100,00 %
18.09.2020 04:12 9,6 C 7,8 C 7,8 C 81 % 1025,4 hPa 0,0 l/m 0 min 0 min 0 W/m 0,0 km/h (0 Bft) 95,65 %
18.09.2020 04:14 9,6 C 7,8 C 7,8 C 81 % 1025,4 hPa 0,0 l/m 0 min 0 min 0 W/m 0,0 km/h (0 Bft) 97,87 %
18.09.2020 04:16 9,6 C 7,8 C 7,8 C 81 % 1025,3 hPa 0,0 l/m 0 min 0 min 0 W/m 0,0 km/h (0 Bft) 95,74 %
18.09.2020 04:18 9,6 C 7,8 C 7,8 C 81 % 1025,3 hPa 0,0 l/m 0 min 0 min 0 W/m 0,0 km/h (0 Bft) 97,87 %
18.09.2020 04:20 9,5 C 7,8 C 7,8 C 81 % 1025,3 hPa 0,0 l/m 0 min 0 min 0 W/m 0,0 km/h (0 Bft) 97,87 %
18.09.2020 04:22 9,5 C 7,8 C 7,8 C 81 % 1025,3 hPa 0,0 l/m 0 min 0 min 0 W/m 0,0 km/h (0 Bft) 95,65 %
18.09.2020 04:24 9,4 C 7,8 C 7,8 C 81 % 1025,3 hPa 0,0 l/m 0 min 0 min 0 W/m 0,0 km/h (0 Bft) 93,62 %
18.09.2020 04:26 9,4 C 7,8 C 7,8 C 82 % 1025,3 hPa 0,0 l/m 0 min 0 min 0 W/m 0,0 km/h (0 Bft) 97,87 %
18.09.2020 04:28 9,4 C 7,8 C 7,8 C 82 % 1025,3 hPa 0,0 l/m 0 min 0 min 0 W/m 0,0 km/h (0 Bft) 97,87 %
18.09.2020 04:30 9,4 C 7,8 C 7,8 C 82 % 1025,3 hPa 0,0 l/m 0 min 0 min 0 W/m 0,0 km/h (0 Bft) 97,87 %
18.09.2020 04:32 9,3 C 7,8 C 7,8 C 82 % 1025,3 hPa 0,0 l/m 0 min 0 min 0 W/m 0,0 km/h (0 Bft) 95,74 %
18.09.2020 04:34 9,3 C 7,8 C 7,8 C 82 % 1025,3 hPa 0,0 l/m 0 min 0 min 0 W/m 0,0 km/h (0 Bft) 93,48 %
18.09.2020 04:36 9,3 C 7,8 C 7,8 C 82 % 1025,3 hPa 0,0 l/m 0 min 0 min 0 W/m 0,0 km/h (0 Bft) 93,62 %
18.09.2020 04:38 9,3 C 7,8 C 7,8 C 82 % 1025,3 hPa 0,0 l/m 0 min 0 min 0 W/m 0,0 km/h (0 Bft) 93,62 %
18.09.2020 04:40 9,2 C 7,8 C 7,8 C 82 % 1025,3 hPa 0,0 l/m 0 min 0 min 0 W/m 0,0 km/h (0 Bft) 91,49 %
18.09.2020 04:42 9,2 C 7,8 C 7,8 C 82 % 1025,3 hPa 0,0 l/m 0 min 0 min 0 W/m 0,0 km/h (0 Bft) 91,49 %
18.09.2020 04:44 9,2 C 7,8 C 7,8 C 82 % 1025,3 hPa 0,0 l/m 0 min 0 min 0 W/m 0,0 km/h (0 Bft) 93,62 %
18.09.2020 04:46 9,2 C 7,8 C 7,8 C 82 % 1025,3 hPa 0,0 l/m 0 min 0 min 0 W/m 0,0 km/h (0 Bft) 93,48 %
18.09.2020 04:48 9,2 C 7,8 C 7,8 C 82 % 1025,2 hPa 0,0 l/m 0 min 0 min 0 W/m 0,0 km/h (0 Bft) 93,62 %
18.09.2020 04:50 9,1 C 7,8 C 7,8 C 83 % 1025,3 hPa 0,0 l/m 0 min 0 min 0 W/m 0,0 km/h (0 Bft) 93,62 %
18.09.2020 04:52 9,1 C 7,8 C 7,8 C 83 % 1025,2 hPa 0,0 l/m 0 min 0 min 0 W/m 0,0 km/h (0 Bft) 93,62 %
18.09.2020 04:54 9,1 C 7,8 C 7,8 C 83 % 1025,3 hPa 0,0 l/m 0 min 0 min 0 W/m 0,0 km/h (0 Bft) 93,62 %
18.09.2020 04:56 9,1 C 7,8 C 7,8 C 83 % 1025,3 hPa 0,0 l/m 0 min 0 min 0 W/m 0,0 km/h (0 Bft) 93,62 %
18.09.2020 04:58 9,1 C 7,8 C 7,8 C 83 % 1025,3 hPa 0,0 l/m 0 min 0 min 0 W/m 0,0 km/h (0 Bft) 93,48 %
18.09.2020 05:00 9,1 C 7,8 C 7,8 C 83 % 1025,2 hPa 0,0 l/m 0 min 0 min 0 W/m 0,0 km/h (0 Bft) 91,49 %
18.09.2020 05:02 9,0 C 7,8 C 7,8 C 83 % 1025,2 hPa 0,0 l/m 0 min 0 min 0 W/m 0,0 km/h (0 Bft) 91,49 %
18.09.2020 05:04 9,0 C 7,8 C 7,2 C 83 % 1025,2 hPa 0,0 l/m 0 min 0 min 0 W/m 0,0 km/h (0 Bft) 93,62 %
18.09.2020 05:06 8,9 C 7,2 C 7,2 C 83 % 1025,1 hPa 0,0 l/m 0 min 0 min 0 W/m 0,0 km/h (0 Bft) 97,87 %
18.09.2020 05:08 8,9 C 7,8 C 7,2 C 83 % 1025,1 hPa 0,0 l/m 0 min 0 min 0 W/m 0,0 km/h (0 Bft) 97,87 %
18.09.2020 05:10 8,9 C 7,8 C 7,2 C 83 % 1025,1 hPa 0,0 l/m 0 min 0 min 0 W/m 0,0 km/h (0 Bft) 95,65 %
18.09.2020 05:12 8,9 C 7,8 C 7,2 C 83 % 1025,1 hPa 0,0 l/m 0 min 0 min 0 W/m 0,0 km/h (0 Bft) 97,87 %
18.09.2020 05:14 8,8 C 7,2 C 7,2 C 83 % 1025,0 hPa 0,0 l/m 0 min 0 min 0 W/m 0,0 km/h (0 Bft) 97,87 %
18.09.2020 05:16 8,8 C 7,2 C 7,2 C 83 % 1025,0 hPa 0,0 l/m 0 min 0 min 0 W/m 0,0 km/h (0 Bft) 97,87 %
18.09.2020 05:18 8,8 C 7,2 C 7,2 C 83 % 1025,1 hPa 0,0 l/m 0 min 0 min 0 W/m 0,0 km/h (0 Bft) 95,74 %
18.09.2020 05:20 8,8 C 7,2 C 7,2 C 83 % 1025,1 hPa 0,0 l/m 0 min 0 min 0 W/m 0,0 km/h (0 Bft) 97,83 %
18.09.2020 05:22 8,8 C 7,2 C 7,2 C 83 % 1025,1 hPa 0,0 l/m 0 min 0 min 0 W/m 0,0 km/h (0 Bft) 97,87 %
18.09.2020 05:24 8,8 C 7,2 C 7,2 C 83 % 1025,0 hPa 0,0 l/m 0 min 0 min 0 W/m 0,0 km/h (0 Bft) 97,87 %
18.09.2020 05:26 8,7 C 7,2 C 7,2 C 83 % 1025,0 hPa 0,0 l/m 0 min 0 min 0 W/m 0,0 km/h (0 Bft) 95,74 %
18.09.2020 05:28 8,7 C 7,2 C 7,2 C 83 % 1025,1 hPa 0,0 l/m 0 min 0 min 0 W/m 0,0 km/h (0 Bft) 95,74 %
18.09.2020 05:30 8,7 C 7,2 C 7,2 C 83 % 1025,0 hPa 0,0 l/m 0 min 0 min 0 W/m 0,0 km/h (0 Bft) 97,87 %
18.09.2020 05:32 8,7 C 7,2 C 7,2 C 83 % 1025,1 hPa 0,0 l/m 0 min 0 min 0 W/m 0,0 km/h (0 Bft) 97,83 %
18.09.2020 05:34 8,7 C 7,2 C 7,2 C 83 % 1025,0 hPa 0,0 l/m 0 min 0 min 0 W/m 0,0 km/h (0 Bft) 97,87 %
18.09.2020 05:36 8,6 C 7,2 C 7,2 C 84 % 1025,0 hPa 0,0 l/m 0 min 0 min 0 W/m 0,0 km/h (0 Bft) 97,87 %
18.09.2020 05:38 8,6 C 7,2 C 7,2 C 84 % 1025,0 hPa 0,0 l/m 0 min 0 min 0 W/m 0,0 km/h (0 Bft) 97,87 %
18.09.2020 05:40 8,6 C 7,2 C 7,2 C 84 % 1025,0 hPa 0,0 l/m 0 min 0 min 0 W/m 0,0 km/h (0 Bft) 65,96 %
18.09.2020 05:42 8,6 C 7,2 C 7,2 C 84 % 1025,0 hPa 0,0 l/m 0 min 0 min 0 W/m 0,0 km/h (0 Bft) 84,44 %
18.09.2020 05:44 8,6 C 7,2 C 7,2 C 84 % 1025,0 hPa 0,0 l/m 0 min 0 min 0 W/m 0,0 km/h (0 Bft) 97,83 %
18.09.2020 05:46 8,6 C 7,2 C 7,2 C 84 % 1025,0 hPa 0,0 l/m 0 min 0 min 0 W/m 0,0 km/h (0 Bft) 97,87 %
18.09.2020 05:48 8,6 C 7,2 C 7,2 C 84 % 1025,0 hPa 0,0 l/m 0 min 0 min 0 W/m 0,0 km/h (0 Bft) 97,87 %
18.09.2020 05:50 8,5 C 7,2 C 7,2 C 84 % 1025,0 hPa 0,0 l/m 0 min 0 min 0 W/m 0,0 km/h (0 Bft) 93,62 %
18.09.2020 05:52 8,5 C 7,2 C 7,2 C 84 % 1025,0 hPa 0,0 l/m 0 min 0 min 0 W/m 0,0 km/h (0 Bft) 97,87 %
18.09.2020 05:54 8,5 C 7,2 C 7,2 C 84 % 1024,9 hPa 0,0 l/m 0 min 0 min 0 W/m 0,0 km/h (0 Bft) 100,00 %
18.09.2020 05:56 8,5 C 7,2 C 7,2 C 84 % 1024,9 hPa 0,0 l/m 0 min 0 min 0 W/m 0,0 km/h (0 Bft) 95,65 %
18.09.2020 05:58 8,4 C 7,2 C 7,2 C 84 % 1024,9 hPa 0,0 l/m 0 min 0 min 0 W/m 0,0 km/h (0 Bft) 100,00 %
18.09.2020 06:00 8,4 C 7,2 C 7,2 C 84 % 1025,0 hPa 0,0 l/m 0 min 0 min 0 W/m 0,0 km/h (0 Bft) 100,00 %
18.09.2020 06:02 8,4 C 7,2 C 7,2 C 85 % 1025,0 hPa 0,0 l/m 0 min 0 min 0 W/m 0,0 km/h (0 Bft) 100,00 %
18.09.2020 06:04 8,4 C 7,2 C 7,2 C 85 % 1025,0 hPa 0,0 l/m 0 min 0 min 0 W/m 0,0 km/h (0 Bft) 100,00 %
18.09.2020 06:08 8,4 C 7,2 C 7,2 C 85 % 1025,1 hPa 0,0 l/m 0 min 0 min 0 W/m 0,0 km/h (0 Bft) 98,92 %
18.09.2020 06:10 8,4 C 7,2 C 7,2 C 85 % 1025,0 hPa 0,0 l/m 0 min 0 min 0 W/m 0,0 km/h (0 Bft) 100,00 %
18.09.2020 06:12 8,4 C 7,2 C 7,2 C 85 % 1025,0 hPa 0,0 l/m 0 min 0 min 0 W/m 0,0 km/h (0 Bft) 100,00 %
18.09.2020 06:14 8,4 C 7,2 C 7,2 C 85 % 1025,0 hPa 0,0 l/m 0 min 0 min 0 W/m 0,0 km/h (0 Bft) 100,00 %
18.09.2020 06:16 8,4 C 7,2 C 7,2 C 85 % 1025,0 hPa 0,0 l/m 0 min 0 min 0 W/m 0,0 km/h (0 Bft) 97,87 %
18.09.2020 06:18 8,3 C 7,2 C 7,2 C 85 % 1025,0 hPa 0,0 l/m 0 min 0 min 0 W/m 0,0 km/h (0 Bft) 100,00 %
18.09.2020 06:20 8,3 C 7,2 C 7,2 C 85 % 1025,0 hPa 0,0 l/m 0 min 0 min 0 W/m 0,0 km/h (0 Bft) 100,00 %
18.09.2020 06:22 8,3 C 7,2 C 7,2 C 85 % 1025,0 hPa 0,0 l/m 0 min 0 min 0 W/m 0,0 km/h (0 Bft) 97,87 %
18.09.2020 06:24 8,3 C 7,2 C 7,2 C 85 % 1025,0 hPa 0,0 l/m 0 min 0 min 0 W/m 0,0 km/h (0 Bft) 97,87 %
18.09.2020 06:26 8,3 C 7,2 C 7,2 C 85 % 1025,0 hPa 0,0 l/m 0 min 0 min 0 W/m 0,0 km/h (0 Bft) 100,00 %
18.09.2020 06:28 8,3 C 7,2 C 7,2 C 85 % 1025,0 hPa 0,0 l/m 0 min 0 min 0 W/m 0,0 km/h (0 Bft) 95,74 %
18.09.2020 06:30 8,3 C 7,2 C 7,2 C 85 % 1025,0 hPa 0,0 l/m 0 min 0 min 0 W/m 0,0 km/h (0 Bft) 97,83 %
18.09.2020 06:32 8,3 C 7,2 C 7,2 C 85 % 1024,9 hPa 0,0 l/m 0 min 0 min 0 W/m 0,0 km/h (0 Bft) 95,74 %
18.09.2020 06:34 8,3 C 7,2 C 7,2 C 85 % 1024,9 hPa 0,0 l/m 0 min 0 min 0 W/m 0,0 km/h (0 Bft) 97,87 %
18.09.2020 06:36 8,3 C 7,2 C 7,2 C 86 % 1024,9 hPa 0,0 l/m 0 min 0 min 0 W/m 0,0 km/h (0 Bft) 97,87 %
18.09.2020 06:38 8,3 C 7,2 C 7,2 C 86 % 1024,9 hPa 0,0 l/m 0 min 0 min 0 W/m 0,0 km/h (0 Bft) 95,74 %
18.09.2020 06:40 8,2 C 7,2 C 7,2 C 86 % 1024,9 hPa 0,0 l/m 0 min 0 min 0 W/m 0,0 km/h (0 Bft) 97,87 %
18.09.2020 06:42 8,2 C 7,2 C 7,2 C 86 % 1024,9 hPa 0,0 l/m 0 min 0 min 0 W/m 0,0 km/h (0 Bft) 97,83 %
18.09.2020 06:44 8,3 C 7,2 C 7,2 C 86 % 1024,9 hPa 0,0 l/m 0 min 0 min 0 W/m 0,0 km/h (0 Bft) 97,87 %
18.09.2020 06:46 8,2 C 7,2 C 7,2 C 86 % 1025,0 hPa 0,0 l/m 0 min 0 min 0 W/m 0,0 km/h (0 Bft) 95,74 %
18.09.2020 06:48 8,2 C 7,2 C 7,2 C 86 % 1025,0 hPa 0,0 l/m 0 min 0 min 0 W/m 0,0 km/h (0 Bft) 97,87 %
18.09.2020 06:50 8,2 C 7,2 C 7,2 C 86 % 1025,0 hPa 0,0 l/m 0 min 0 min 0 W/m 0,0 km/h (0 Bft) 97,87 %
18.09.2020 06:52 8,2 C 7,2 C 7,2 C 86 % 1025,0 hPa 0,0 l/m 0 min 0 min 0 W/m 6,4 km/h (2 Bft) 97,87 %
18.09.2020 06:54 8,2 C 7,2 C 7,8 C 86 % 1025,0 hPa 0,0 l/m 0 min 0 min 0 W/m 0,0 km/h (0 Bft) 97,83 %
18.09.2020 06:56 8,2 C 7,2 C 7,8 C 86 % 1025,0 hPa 0,0 l/m 0 min 0 min 0 W/m 0,0 km/h (0 Bft) 95,74 %
18.09.2020 06:58 8,2 C 7,8 C 7,8 C 87 % 1025,0 hPa 0,0 l/m 0 min 0 min 0 W/m 0,0 km/h (0 Bft) 97,87 %
18.09.2020 07:00 8,3 C 7,8 C 7,8 C 87 % 1025,1 hPa 0,0 l/m 0 min 0 min 0 W/m 0,0 km/h (0 Bft) 100,00 %
18.09.2020 07:02 8,3 C 7,8 C 7,8 C 87 % 1025,1 hPa 0,0 l/m 0 min 0 min 0 W/m 0,0 km/h (0 Bft) 55,56 %
18.09.2020 07:04 8,3 C 7,8 C 7,8 C 87 % 1025,1 hPa 0,0 l/m 0 min 0 min 0 W/m 0,0 km/h (0 Bft) 100,00 %
18.09.2020 07:06 8,3 C 7,8 C 7,8 C 87 % 1025,1 hPa 0,0 l/m 0 min 0 min 0 W/m 0,0 km/h (0 Bft) 100,00 %
18.09.2020 07:08 8,3 C 7,2 C 7,2 C 87 % 1025,1 hPa 0,0 l/m 0 min 0 min 0 W/m 0,0 km/h (0 Bft) 100,00 %
18.09.2020 07:10 8,3 C 7,2 C 7,8 C 87 % 1025,1 hPa 0,0 l/m 0 min 0 min 0 W/m 0,0 km/h (0 Bft) 100,00 %
18.09.2020 07:12 8,3 C 7,2 C 7,8 C 87 % 1025,1 hPa 0,0 l/m 0 min 0 min 0 W/m 0,0 km/h (0 Bft) 100,00 %
18.09.2020 07:14 8,3 C 7,2 C 7,2 C 87 % 1025,1 hPa 0,0 l/m 0 min 0 min 0 W/m 0,0 km/h (0 Bft) 100,00 %
18.09.2020 07:16 8,3 C 7,2 C 7,2 C 87 % 1025,1 hPa 0,0 l/m 0 min 0 min 2 W/m 0,0 km/h (0 Bft) 100,00 %
18.09.2020 07:18 8,3 C 7,8 C 7,2 C 87 % 1025,1 hPa 0,0 l/m 0 min 0 min 5 W/m 0,0 km/h (0 Bft) 98,21 %
18.09.2020 07:20 8,3 C 7,2 C 7,2 C 87 % 1025,2 hPa 0,0 l/m 0 min 0 min 6 W/m 0,0 km/h (0 Bft) 97,87 %
18.09.2020 07:22 8,3 C 7,2 C 7,2 C 87 % 1025,2 hPa 0,0 l/m 0 min 0 min 7 W/m 0,0 km/h (0 Bft) 97,87 %
18.09.2020 07:24 8,3 C 7,8 C 7,2 C 87 % 1025,2 hPa 0,0 l/m 0 min 0 min 7 W/m 0,0 km/h (0 Bft) 97,83 %
18.09.2020 07:26 8,3 C 7,8 C 7,2 C 87 % 1025,2 hPa 0,0 l/m 0 min 0 min 9 W/m 0,0 km/h (0 Bft) 95,74 %
18.09.2020 07:28 8,3 C 7,8 C 7,8 C 87 % 1025,2 hPa 0,0 l/m 0 min 0 min 11 W/m 0,0 km/h (0 Bft) 97,87 %
18.09.2020 07:30 8,3 C 7,8 C 7,8 C 87 % 1025,2 hPa 0,0 l/m 0 min 0 min 11 W/m 0,0 km/h (0 Bft) 97,87 %
18.09.2020 07:32 8,3 C 7,8 C 7,8 C 87 % 1025,2 hPa 0,0 l/m 0 min 0 min 12 W/m 0,0 km/h (0 Bft) 95,74 %
18.09.2020 07:34 8,3 C 7,8 C 7,8 C 87 % 1025,2 hPa 0,0 l/m 0 min 0 min 12 W/m 0,0 km/h (0 Bft) 97,87 %
18.09.2020 07:36 8,3 C 7,8 C 7,8 C 87 % 1025,1 hPa 0,0 l/m 0 min 0 min 14 W/m 0,0 km/h (0 Bft) 97,83 %
18.09.2020 07:38 8,3 C 7,8 C 7,8 C 87 % 1025,1 hPa 0,0 l/m 0 min 0 min 15 W/m 0,0 km/h (0 Bft) 97,87 %
18.09.2020 07:40 8,3 C 7,8 C 7,8 C 87 % 1025,1 hPa 0,0 l/m 0 min 0 min 16 W/m 0,0 km/h (0 Bft) 97,87 %
18.09.2020 07:42 8,3 C 7,8 C 7,8 C 87 % 1025,1 hPa 0,0 l/m 0 min 0 min 16 W/m 3,2 km/h (1 Bft) 97,87 %
18.09.2020 07:44 8,3 C 7,8 C 7,8 C 87 % 1025,1 hPa 0,0 l/m 0 min 0 min 18 W/m 0,0 km/h (0 Bft) 97,87 %
18.09.2020 07:46 8,3 C 7,8 C 7,8 C 87 % 1025,1 hPa 0,0 l/m 0 min 0 min 18 W/m 0,0 km/h (0 Bft) 97,83 %
18.09.2020 07:48 8,3 C 7,8 C 7,8 C 87 % 1025,0 hPa 0,0 l/m 0 min 0 min 19 W/m 0,0 km/h (0 Bft) 97,87 %
18.09.2020 07:50 8,3 C 7,8 C 7,8 C 87 % 1025,1 hPa 0,0 l/m 0 min 0 min 20 W/m 0,0 km/h (0 Bft) 95,74 %
18.09.2020 07:52 8,3 C 7,8 C 7,8 C 87 % 1025,1 hPa 0,0 l/m 0 min 0 min 21 W/m 0,0 km/h (0 Bft) 97,87 %
18.09.2020 07:54 8,3 C 7,8 C 7,8 C 87 % 1025,1 hPa 0,0 l/m 0 min 0 min 21 W/m 0,0 km/h (0 Bft) 97,87 %
18.09.2020 07:56 8,4 C 7,8 C 7,8 C 88 % 1025,1 hPa 0,0 l/m 0 min 0 min 22 W/m 0,0 km/h (0 Bft) 97,87 %
18.09.2020 07:58 8,4 C 7,8 C 7,8 C 87 % 1025,1 hPa 0,0 l/m 0 min 0 min 23 W/m 0,0 km/h (0 Bft) 97,83 %
18.09.2020 08:00 8,4 C 8,3 C 7,8 C 87 % 1025,1 hPa 0,0 l/m 0 min 0 min 24 W/m 0,0 km/h (0 Bft) 97,87 %
18.09.2020 08:02 8,4 C 8,3 C 7,8 C 88 % 1025,2 hPa 0,0 l/m 0 min 0 min 25 W/m 3,2 km/h (1 Bft) 97,87 %
18.09.2020 08:04 8,4 C 8,3 C 7,8 C 88 % 1025,2 hPa 0,0 l/m 0 min 0 min 25 W/m 0,0 km/h (0 Bft) 97,87 %
18.09.2020 08:06 8,4 C 8,3 C 8,3 C 88 % 1025,1 hPa 0,0 l/m 0 min 0 min 26 W/m 0,0 km/h (0 Bft) 95,74 %
18.09.2020 08:08 8,4 C 8,3 C 8,3 C 88 % 1025,2 hPa 0,0 l/m 0 min 0 min 27 W/m 0,0 km/h (0 Bft) 97,92 %
18.09.2020 08:10 8,4 C 8,3 C 8,3 C 88 % 1025,2 hPa 0,0 l/m 0 min 0 min 28 W/m 0,0 km/h (0 Bft) 100,00 %
18.09.2020 08:12 8,4 C 8,3 C 8,3 C 88 % 1025,2 hPa 0,0 l/m 0 min 0 min 28 W/m 0,0 km/h (0 Bft) 100,00 %
18.09.2020 08:14 8,5 C 8,3 C 8,3 C 88 % 1025,3 hPa 0,0 l/m 0 min 0 min 30 W/m 0,0 km/h (0 Bft) 100,00 %
18.09.2020 08:16 8,5 C 8,3 C 8,3 C 88 % 1025,3 hPa 0,0 l/m 0 min 0 min 31 W/m 0,0 km/h (0 Bft) 100,00 %
18.09.2020 08:18 8,5 C 8,3 C 8,3 C 88 % 1025,3 hPa 0,0 l/m 0 min 0 min 32 W/m 0,0 km/h (0 Bft) 95,74 %
18.09.2020 08:20 8,6 C 8,9 C 8,3 C 88 % 1025,3 hPa 0,0 l/m 0 min 0 min 33 W/m 0,0 km/h (0 Bft) 97,87 %
18.09.2020 08:22 8,6 C 8,9 C 8,3 C 88 % 1025,3 hPa 0,0 l/m 0 min 0 min 33 W/m 0,0 km/h (0 Bft) 97,87 %
18.09.2020 08:24 8,6 C 8,9 C 8,3 C 88 % 1025,3 hPa 0,0 l/m 0 min 0 min 33 W/m 3,2 km/h (1 Bft) 100,00 %
18.09.2020 08:26 8,6 C 8,9 C 8,3 C 88 % 1025,3 hPa 0,0 l/m 0 min 0 min 35 W/m 3,2 km/h (1 Bft) 97,83 %
18.09.2020 08:28 8,7 C 8,9 C 8,3 C 88 % 1025,3 hPa 0,0 l/m 0 min 0 min 35 W/m 6,4 km/h (2 Bft) 97,87 %
18.09.2020 08:30 8,7 C 8,9 C 8,9 C 89 % 1025,3 hPa 0,0 l/m 0 min 0 min 36 W/m 3,2 km/h (1 Bft) 97,87 %
18.09.2020 08:32 8,7 C 9,4 C 8,9 C 89 % 1025,3 hPa 0,0 l/m 0 min 0 min 37 W/m 0,0 km/h (0 Bft) 97,87 %
18.09.2020 08:34 8,8 C 9,4 C 8,9 C 89 % 1025,3 hPa 0,0 l/m 0 min 0 min 37 W/m 0,0 km/h (0 Bft) 97,87 %
18.09.2020 08:36 8,8 C 9,4 C 8,9 C 89 % 1025,4 hPa 0,0 l/m 0 min 0 min 39 W/m 3,2 km/h (1 Bft) 95,74 %
18.09.2020 08:38 8,8 C 9,4 C 8,9 C 88 % 1025,3 hPa 0,0 l/m 0 min 0 min 39 W/m 0,0 km/h (0 Bft) 97,83 %
18.09.2020 08:40 8,8 C 9,4 C 8,9 C 88 % 1025,4 hPa 0,0 l/m 0 min 0 min 40 W/m 0,0 km/h (0 Bft) 93,62 %
18.09.2020 08:42 8,9 C 9,4 C 8,9 C 88 % 1025,4 hPa 0,0 l/m 0 min 0 min 40 W/m 0,0 km/h (0 Bft) 95,74 %
18.09.2020 08:44 8,9 C 9,4 C 8,9 C 88 % 1025,4 hPa 0,0 l/m 0 min 0 min 42 W/m 0,0 km/h (0 Bft) 97,87 %
18.09.2020 08:46 9,0 C 9,4 C 9,4 C 88 % 1025,4 hPa 0,0 l/m 0 min 0 min 42 W/m 0,0 km/h (0 Bft) 97,87 %
18.09.2020 08:48 9,1 C 10,0 C 9,4 C 88 % 1025,4 hPa 0,0 l/m 0 min 0 min 44 W/m 0,0 km/h (0 Bft) 97,83 %
18.09.2020 08:50 9,1 C 10,0 C 9,4 C 88 % 1025,4 hPa 0,0 l/m 0 min 0 min 45 W/m 0,0 km/h (0 Bft) 95,74 %
18.09.2020 08:52 9,1 C 10,0 C 9,4 C 88 % 1025,4 hPa 0,0 l/m 0 min 0 min 46 W/m 3,2 km/h (1 Bft) 95,74 %
18.09.2020 08:54 9,2 C 10,0 C 9,4 C 88 % 1025,3 hPa 0,0 l/m 0 min 0 min 47 W/m 0,0 km/h (0 Bft) 97,87 %
18.09.2020 08:56 9,2 C 10,0 C 9,4 C 88 % 1025,3 hPa 0,0 l/m 0 min 0 min 48 W/m 9,7 km/h (2 Bft) 95,74 %
18.09.2020 08:58 9,3 C 10,0 C 9,4 C 88 % 1025,3 hPa 0,0 l/m 0 min 0 min 49 W/m 0,0 km/h (0 Bft) 95,74 %
18.09.2020 09:00 9,3 C 10,0 C 9,4 C 88 % 1025,4 hPa 0,0 l/m 0 min 0 min 50 W/m 0,0 km/h (0 Bft) 95,65 %
18.09.2020 09:02 9,3 C 10,6 C 9,4 C 88 % 1025,4 hPa 0,0 l/m 0 min 0 min 52 W/m 0,0 km/h (0 Bft) 95,74 %
18.09.2020 09:04 9,4 C 10,6 C 9,4 C 88 % 1025,3 hPa 0,0 l/m 0 min 0 min 53 W/m 0,0 km/h (0 Bft) 95,74 %
18.09.2020 09:06 9,5 C 10,6 C 9,4 C 88 % 1025,3 hPa 0,0 l/m 0 min 0 min 54 W/m 0,0 km/h (0 Bft) 95,74 %
18.09.2020 09:08 9,6 C 10,6 C 9,4 C 88 % 1025,3 hPa 0,0 l/m 0 min 0 min 54 W/m 0,0 km/h (0 Bft) 93,62 %
18.09.2020 09:10 9,6 C 10,6 C 10,0 C 88 % 1025,3 hPa 0,0 l/m 0 min 0 min 56 W/m 0,0 km/h (0 Bft) 97,87 %
18.09.2020 09:12 9,6 C 10,6 C 10,0 C 88 % 1025,3 hPa 0,0 l/m 0 min 0 min 57 W/m 0,0 km/h (0 Bft) 97,83 %
18.09.2020 09:14 9,7 C 11,1 C 10,0 C 88 % 1025,3 hPa 0,0 l/m 0 min 0 min 58 W/m 0,0 km/h (0 Bft) 97,87 %
18.09.2020 09:16 9,8 C 11,1 C 10,0 C 88 % 1025,3 hPa 0,0 l/m 0 min 0 min 60 W/m 0,0 km/h (0 Bft) 95,74 %
18.09.2020 09:18 9,8 C 11,1 C 10,0 C 88 % 1025,3 hPa 0,0 l/m 0 min 0 min 62 W/m 0,0 km/h (0 Bft) 97,87 %
18.09.2020 09:20 9,9 C 11,1 C 10,0 C 88 % 1025,3 hPa 0,0 l/m 0 min 0 min 62 W/m 0,0 km/h (0 Bft) 97,87 %
18.09.2020 09:22 9,9 C 11,7 C 10,0 C 87 % 1025,2 hPa 0,0 l/m 0 min 0 min 63 W/m 0,0 km/h (0 Bft) 97,87 %
18.09.2020 09:24 10,0 C 11,7 C 10,0 C 88 % 1025,2 hPa 0,0 l/m 0 min 0 min 67 W/m 0,0 km/h (0 Bft) 97,83 %
18.09.2020 09:26 10,1 C 11,7 C 10,0 C 87 % 1025,3 hPa 0,0 l/m 2 min 0 min 182 W/m 0,0 km/h (0 Bft) 97,87 %
18.09.2020 09:28 10,1 C 11,7 C 10,0 C 87 % 1025,3 hPa 0,0 l/m 2 min 0 min 300 W/m 3,2 km/h (1 Bft) 97,87 %
18.09.2020 09:30 10,2 C 13,9 C 10,6 C 87 % 1025,3 hPa 0,0 l/m 2 min 0 min 306 W/m 6,4 km/h (2 Bft) 97,87 %
18.09.2020 09:32 10,3 C 15,0 C 10,6 C 87 % 1025,3 hPa 0,0 l/m 2 min 0 min 313 W/m 0,0 km/h (0 Bft) 97,87 %
18.09.2020 09:34 10,4 C 16,7 C 10,6 C 87 % 1025,4 hPa 0,0 l/m 2 min 0 min 318 W/m 3,2 km/h (1 Bft) 97,87 %
18.09.2020 09:36 10,5 C 17,8 C 10,6 C 87 % 1025,4 hPa 0,0 l/m 2 min 0 min 324 W/m 0,0 km/h (0 Bft) 97,83 %
18.09.2020 09:38 10,6 C 18,3 C 10,6 C 87 % 1025,4 hPa 0,0 l/m 2 min 0 min 331 W/m 0,0 km/h (0 Bft) 100,00 %
18.09.2020 09:40 10,8 C 18,3 C 11,1 C 87 % 1025,4 hPa 0,0 l/m 2 min 0 min 337 W/m 0,0 km/h (0 Bft) 97,87 %
18.09.2020 09:42 10,9 C 18,9 C 11,1 C 87 % 1025,4 hPa 0,0 l/m 2 min 0 min 342 W/m 0,0 km/h (0 Bft) 100,00 %
18.09.2020 09:44 11,1 C 18,9 C 11,1 C 87 % 1025,4 hPa 0,0 l/m 2 min 0 min 349 W/m 0,0 km/h (0 Bft) 100,00 %
18.09.2020 09:46 11,2 C 19,4 C 11,1 C 87 % 1025,4 hPa 0,0 l/m 2 min 0 min 354 W/m 0,0 km/h (0 Bft) 97,87 %
18.09.2020 09:48 11,4 C 19,4 C 11,1 C 87 % 1025,4 hPa 0,0 l/m 2 min 0 min 359 W/m 12,9 km/h (3 Bft) 100,00 %
18.09.2020 09:50 11,6 C 19,4 C 11,7 C 86 % 1025,4 hPa 0,0 l/m 2 min 0 min 366 W/m 6,4 km/h (2 Bft) 97,87 %
18.09.2020 09:52 11,8 C 19,4 C 12,8 C 86 % 1025,4 hPa 0,0 l/m 2 min 0 min 371 W/m 12,9 km/h (3 Bft) 95,74 %
18.09.2020 09:54 11,9 C 20,0 C 14,4 C 85 % 1025,5 hPa 0,0 l/m 2 min 0 min 376 W/m 3,2 km/h (1 Bft) 97,87 %
18.09.2020 09:56 12,1 C 20,0 C 16,7 C 85 % 1025,4 hPa 0,0 l/m 2 min 0 min 382 W/m 3,2 km/h (1 Bft) 95,74 %
18.09.2020 09:58 12,3 C 20,6 C 17,8 C 84 % 1025,5 hPa 0,0 l/m 2 min 0 min 388 W/m 3,2 km/h (1 Bft) 97,83 %
18.09.2020 10:00 12,6 C 20,6 C 18,3 C 84 % 1025,4 hPa 0,0 l/m 2 min 0 min 392 W/m 6,4 km/h (2 Bft) 97,87 %
18.09.2020 10:02 12,7 C 20,6 C 18,9 C 83 % 1025,5 hPa 0,0 l/m 2 min 0 min 398 W/m 12,9 km/h (3 Bft) 97,87 %
18.09.2020 10:04 12,9 C 20,6 C 18,9 C 82 % 1025,4 hPa 0,0 l/m 2 min 0 min 403 W/m 6,4 km/h (2 Bft) 97,87 %
18.09.2020 10:06 13,1 C 21,1 C 19,4 C 81 % 1025,4 hPa 0,0 l/m 2 min 0 min 408 W/m 6,4 km/h (2 Bft) 97,87 %
18.09.2020 10:08 13,3 C 21,1 C 18,9 C 81 % 1025,4 hPa 0,0 l/m 2 min 0 min 413 W/m 6,4 km/h (2 Bft) 97,87 %
18.09.2020 10:10 13,5 C 21,1 C 18,3 C 80 % 1025,4 hPa 0,0 l/m 2 min 0 min 418 W/m 6,4 km/h (2 Bft) 95,65 %
18.09.2020 10:12 13,7 C 21,7 C 17,8 C 80 % 1025,4 hPa 0,0 l/m 2 min 0 min 423 W/m 12,9 km/h (3 Bft) 97,87 %
18.09.2020 10:14 13,9 C 22,2 C 16,7 C 79 % 1025,4 hPa 0,0 l/m 2 min 0 min 428 W/m 6,4 km/h (2 Bft) 97,87 %
18.09.2020 10:16 14,1 C 22,2 C 15,6 C 79 % 1025,4 hPa 0,0 l/m 2 min 0 min 435 W/m 3,2 km/h (1 Bft) 100,00 %
18.09.2020 10:18 14,3 C 22,2 C 15,6 C 78 % 1025,4 hPa 0,0 l/m 2 min 0 min 437 W/m 6,4 km/h (2 Bft) 95,74 %
18.09.2020 10:20 14,3 C 22,2 C 15,0 C 78 % 1025,4 hPa 0,0 l/m 2 min 0 min 446 W/m 6,4 km/h (2 Bft) 97,62 %
18.09.2020 10:22 14,6 C 22,8 C 15,0 C 77 % 1025,4 hPa 0,0 l/m 2 min 0 min 449 W/m 6,4 km/h (2 Bft) 95,74 %
18.09.2020 10:24 14,8 C 22,2 C 14,4 C 76 % 1025,4 hPa 0,0 l/m 2 min 0 min 454 W/m 6,4 km/h (2 Bft) 97,87 %
18.09.2020 10:26 14,9 C 22,2 C 14,4 C 75 % 1025,4 hPa 0,0 l/m 2 min 0 min 460 W/m 6,4 km/h (2 Bft) 100,00 %
18.09.2020 10:28 15,1 C 22,8 C 14,4 C 74 % 1025,4 hPa 0,0 l/m 2 min 0 min 464 W/m 6,4 km/h (2 Bft) 100,00 %
18.09.2020 10:30 15,2 C 22,8 C 13,9 C 74 % 1025,4 hPa 0,0 l/m 2 min 0 min 470 W/m 9,7 km/h (2 Bft) 100,00 %
18.09.2020 10:32 15,3 C 22,8 C 14,4 C 74 % 1025,4 hPa 0,0 l/m 2 min 0 min 473 W/m 6,4 km/h (2 Bft) 95,65 %
18.09.2020 10:34 15,5 C 22,8 C 14,4 C 73 % 1025,4 hPa 0,0 l/m 2 min 0 min 478 W/m 9,7 km/h (2 Bft) 100,00 %
18.09.2020 10:36 15,7 C 22,8 C 14,4 C 74 % 1025,4 hPa 0,0 l/m 2 min 0 min 438 W/m 3,2 km/h (1 Bft) 100,00 %
18.09.2020 10:38 15,8 C 23,3 C 14,4 C 73 % 1025,4 hPa 0,0 l/m 2 min 0 min 471 W/m 6,4 km/h (2 Bft) 98,31 %
18.09.2020 10:40 15,9 C 22,8 C 14,4 C 72 % 1025,4 hPa 0,0 l/m 2 min 0 min 488 W/m 6,4 km/h (2 Bft) 100,00 %
18.09.2020 10:42 16,1 C 23,3 C 14,4 C 72 % 1025,4 hPa 0,0 l/m 2 min 0 min 492 W/m 3,2 km/h (1 Bft) 100,00 %
18.09.2020 10:44 16,3 C 23,9 C 14,4 C 72 % 1025,4 hPa 0,0 l/m 2 min 0 min 495 W/m 9,7 km/h (2 Bft) 100,00 %
18.09.2020 10:46 16,4 C 23,3 C 14,4 C 71 % 1025,3 hPa 0,0 l/m 2 min 0 min 502 W/m 6,4 km/h (2 Bft) 100,00 %
18.09.2020 10:48 16,6 C 23,3 C 14,4 C 70 % 1025,3 hPa 0,0 l/m 2 min 0 min 507 W/m 6,4 km/h (2 Bft) 100,00 %
18.09.2020 10:50 16,7 C 23,9 C 15,0 C 70 % 1025,3 hPa 0,0 l/m 2 min 0 min 509 W/m 3,2 km/h (1 Bft) 100,00 %
18.09.2020 10:52 16,8 C 23,9 C 15,0 C 70 % 1025,3 hPa 0,0 l/m 2 min 0 min 514 W/m 6,4 km/h (2 Bft) 100,00 %
18.09.2020 10:54 16,9 C 23,9 C 15,0 C 70 % 1025,3 hPa 0,0 l/m 2 min 0 min 519 W/m 6,4 km/h (2 Bft) 100,00 %
18.09.2020 10:56 17,1 C 23,9 C 15,0 C 69 % 1025,4 hPa 0,0 l/m 2 min 0 min 523 W/m 9,7 km/h (2 Bft) 100,00 %
18.09.2020 10:58 17,2 C 23,9 C 15,0 C 68 % 1025,3 hPa 0,0 l/m 2 min 0 min 527 W/m 6,4 km/h (2 Bft) 100,00 %
18.09.2020 11:00 17,3 C 24,4 C 15,0 C 69 % 1025,3 hPa 0,0 l/m 2 min 0 min 533 W/m 6,4 km/h (2 Bft) 100,00 %
18.09.2020 11:02 17,5 C 25,0 C 15,0 C 69 % 1025,3 hPa 0,0 l/m 2 min 0 min 536 W/m 6,4 km/h (2 Bft) 100,00 %
18.09.2020 11:04 17,6 C 24,4 C 15,0 C 68 % 1025,3 hPa 0,0 l/m 2 min 0 min 540 W/m 6,4 km/h (2 Bft) 100,00 %
18.09.2020 11:06 17,7 C 25,0 C 15,0 C 68 % 1025,3 hPa 0,0 l/m 2 min 0 min 547 W/m 3,2 km/h (1 Bft) 100,00 %
18.09.2020 11:08 17,8 C 25,0 C 15,0 C 68 % 1025,3 hPa 0,0 l/m 2 min 0 min 551 W/m 3,2 km/h (1 Bft) 100,00 %
18.09.2020 11:10 17,9 C 24,4 C 15,6 C 66 % 1025,3 hPa 0,0 l/m 2 min 0 min 555 W/m 6,4 km/h (2 Bft) 97,14 %
18.09.2020 11:12 18,1 C 25,0 C 15,6 C 67 % 1025,2 hPa 0,0 l/m 2 min 0 min 560 W/m 6,4 km/h (2 Bft) 97,87 %
18.09.2020 11:14 18,2 C 25,6 C 15,6 C 68 % 1025,2 hPa 0,0 l/m 2 min 0 min 561 W/m 6,4 km/h (2 Bft) 100,00 %
18.09.2020 11:16 18,3 C 25,6 C 15,6 C 67 % 1025,2 hPa 0,0 l/m 2 min 0 min 563 W/m 9,7 km/h (2 Bft) 97,87 %
18.09.2020 11:18 18,4 C 25,0 C 15,6 C 66 % 1025,2 hPa 0,0 l/m 2 min 0 min 566 W/m 6,4 km/h (2 Bft) 97,87 %
18.09.2020 11:20 18,5 C 25,6 C 15,6 C 67 % 1025,2 hPa 0,0 l/m 2 min 0 min 570 W/m 3,2 km/h (1 Bft) 97,83 %
18.09.2020 11:22 18,6 C 25,6 C 15,6 C 67 % 1025,2 hPa 0,0 l/m 2 min 0 min 572 W/m 6,4 km/h (2 Bft) 97,87 %
18.09.2020 11:24 18,7 C 25,6 C 16,1 C 66 % 1025,2 hPa 0,0 l/m 2 min 0 min 570 W/m 6,4 km/h (2 Bft) 97,87 %
18.09.2020 11:26 18,8 C 26,1 C 16,1 C 66 % 1025,2 hPa 0,0 l/m 2 min 0 min 578 W/m 3,2 km/h (1 Bft) 97,87 %
18.09.2020 11:28 18,9 C 26,7 C 16,1 C 66 % 1025,2 hPa 0,0 l/m 2 min 0 min 585 W/m 6,4 km/h (2 Bft) 97,87 %
18.09.2020 11:30 19,1 C 26,7 C 16,1 C 66 % 1025,1 hPa 0,0 l/m 2 min 0 min 589 W/m 9,7 km/h (2 Bft) 95,74 %
18.09.2020 11:32 19,1 C 26,1 C 16,1 C 64 % 1025,1 hPa 0,0 l/m 2 min 0 min 594 W/m 9,7 km/h (2 Bft) 97,83 %
18.09.2020 11:34 19,2 C 26,1 C 16,1 C 64 % 1025,1 hPa 0,0 l/m 2 min 0 min 601 W/m 6,4 km/h (2 Bft) 97,87 %
18.09.2020 11:36 19,2 C 25,6 C 16,1 C 64 % 1025,1 hPa 0,0 l/m 2 min 0 min 600 W/m 9,7 km/h (2 Bft) 97,87 %
18.09.2020 11:38 19,3 C 26,1 C 16,7 C 64 % 1025,0 hPa 0,0 l/m 2 min 0 min 609 W/m 6,4 km/h (2 Bft) 96,55 %
18.09.2020 11:40 19,4 C 26,1 C 16,7 C 63 % 1025,0 hPa 0,0 l/m 2 min 0 min 608 W/m 6,4 km/h (2 Bft) 97,22 %
18.09.2020 11:42 19,5 C 26,7 C 16,7 C 64 % 1025,0 hPa 0,0 l/m 2 min 0 min 613 W/m 6,4 km/h (2 Bft) 97,87 %
18.09.2020 11:44 19,6 C 26,1 C 16,7 C 64 % 1025,0 hPa 0,0 l/m 2 min 0 min 614 W/m 6,4 km/h (2 Bft) 97,83 %
18.09.2020 11:46 19,7 C 26,7 C 16,7 C 65 % 1024,9 hPa 0,0 l/m 2 min 0 min 618 W/m 3,2 km/h (1 Bft) 97,87 %
18.09.2020 11:48 19,8 C 26,7 C 16,7 C 65 % 1024,9 hPa 0,0 l/m 2 min 0 min 623 W/m 6,4 km/h (2 Bft) 97,87 %
18.09.2020 11:50 19,9 C 27,2 C 16,7 C 65 % 1024,9 hPa 0,0 l/m 2 min 0 min 630 W/m 6,4 km/h (2 Bft) 97,87 %
18.09.2020 11:52 19,9 C 26,7 C 16,7 C 63 % 1024,9 hPa 0,0 l/m 2 min 0 min 635 W/m 6,4 km/h (2 Bft) 95,74 %
18.09.2020 11:54 20,0 C 26,7 C 16,7 C 63 % 1024,9 hPa 0,0 l/m 2 min 0 min 638 W/m 6,4 km/h (2 Bft) 100,00 %
18.09.2020 11:56 20,1 C 27,2 C 16,7 C 63 % 1024,8 hPa 0,0 l/m 2 min 0 min 639 W/m 6,4 km/h (2 Bft) 97,87 %
18.09.2020 11:58 20,2 C 27,2 C 17,2 C 63 % 1024,8 hPa 0,0 l/m 2 min 0 min 643 W/m 9,7 km/h (2 Bft) 97,87 %
18.09.2020 12:00 20,3 C 27,2 C 17,2 C 62 % 1024,8 hPa 0,0 l/m 2 min 0 min 643 W/m 9,7 km/h (2 Bft) 95,74 %
18.09.2020 12:02 20,4 C 27,2 C 17,2 C 63 % 1024,8 hPa 0,0 l/m 2 min 0 min 646 W/m 16,1 km/h (3 Bft) 97,87 %
18.09.2020 12:04 20,4 C 27,2 C 17,2 C 62 % 1024,8 hPa 0,0 l/m 2 min 0 min 649 W/m 12,9 km/h (3 Bft) 97,87 %
18.09.2020 12:08 20,6 C 27,2 C 17,2 C 62 % 1024,8 hPa 0,0 l/m 4 min 0 min 650 W/m 9,7 km/h (2 Bft) 96,77 %
18.09.2020 12:10 20,7 C 27,2 C 17,8 C 62 % 1024,8 hPa 0,0 l/m 2 min 0 min 658 W/m 6,4 km/h (2 Bft) 97,87 %
18.09.2020 12:12 20,8 C 27,2 C 17,8 C 61 % 1024,7 hPa 0,0 l/m 2 min 0 min 653 W/m 6,4 km/h (2 Bft) 97,87 %
18.09.2020 12:14 20,9 C 27,2 C 17,8 C 61 % 1024,7 hPa 0,0 l/m 2 min 0 min 657 W/m 12,9 km/h (3 Bft) 93,62 %
18.09.2020 12:16 20,9 C 27,8 C 17,8 C 62 % 1024,7 hPa 0,0 l/m 2 min 0 min 660 W/m 3,2 km/h (1 Bft) 95,74 %
18.09.2020 12:18 21,1 C 27,8 C 17,8 C 62 % 1024,7 hPa 0,0 l/m 2 min 0 min 656 W/m 6,4 km/h (2 Bft) 97,83 %
18.09.2020 12:20 21,1 C 27,8 C 17,8 C 60 % 1024,7 hPa 0,0 l/m 2 min 0 min 666 W/m 6,4 km/h (2 Bft) 97,87 %
18.09.2020 12:22 21,2 C 27,8 C 18,3 C 60 % 1024,6 hPa 0,0 l/m 2 min 0 min 664 W/m 9,7 km/h (2 Bft) 95,74 %
18.09.2020 12:24 21,3 C 28,3 C 18,3 C 61 % 1024,6 hPa 0,0 l/m 2 min 0 min 669 W/m 6,4 km/h (2 Bft) 97,87 %
18.09.2020 12:26 21,4 C 28,3 C 18,3 C 61 % 1024,6 hPa 0,0 l/m 2 min 0 min 671 W/m 9,7 km/h (2 Bft) 97,87 %
18.09.2020 12:28 21,6 C 28,3 C 18,3 C 61 % 1024,6 hPa 0,0 l/m 2 min 0 min 678 W/m 6,4 km/h (2 Bft) 97,87 %
18.09.2020 12:30 21,7 C 28,9 C 18,3 C 61 % 1024,5 hPa 0,0 l/m 2 min 0 min 680 W/m 6,4 km/h (2 Bft) 95,65 %
18.09.2020 12:32 21,8 C 28,9 C 18,3 C 60 % 1024,5 hPa 0,0 l/m 2 min 0 min 680 W/m 9,7 km/h (2 Bft) 97,92 %
18.09.2020 12:34 21,9 C 28,9 C 18,9 C 59 % 1024,4 hPa 0,0 l/m 2 min 0 min 684 W/m 6,4 km/h (2 Bft) 97,87 %
18.09.2020 12:36 22,0 C 28,9 C 18,9 C 60 % 1024,4 hPa 0,0 l/m 2 min 0 min 688 W/m 6,4 km/h (2 Bft) 97,87 %
18.09.2020 12:38 22,1 C 28,9 C 18,9 C 59 % 1024,4 hPa 0,0 l/m 2 min 0 min 690 W/m 9,7 km/h (2 Bft) 97,87 %
18.09.2020 12:40 22,2 C 28,9 C 18,9 C 58 % 1024,3 hPa 0,0 l/m 2 min 0 min 690 W/m 6,4 km/h (2 Bft) 97,83 %
18.09.2020 12:42 22,3 C 29,4 C 18,9 C 58 % 1024,3 hPa 0,0 l/m 2 min 0 min 691 W/m 6,4 km/h (2 Bft) 97,87 %
18.09.2020 12:44 22,4 C 30,0 C 18,9 C 59 % 1024,2 hPa 0,0 l/m 2 min 0 min 695 W/m 6,4 km/h (2 Bft) 97,87 %
18.09.2020 12:46 22,5 C 29,4 C 18,9 C 60 % 1024,2 hPa 0,0 l/m 2 min 0 min 694 W/m 6,4 km/h (2 Bft) 97,87 %
18.09.2020 12:48 22,6 C 29,4 C 18,9 C 57 % 1024,2 hPa 0,0 l/m 2 min 0 min 698 W/m 6,4 km/h (2 Bft) 97,87 %
18.09.2020 12:50 22,7 C 28,9 C 19,4 C 58 % 1024,2 hPa 0,0 l/m 2 min 0 min 696 W/m 12,9 km/h (3 Bft) 100,00 %
18.09.2020 12:52 22,8 C 28,9 C 19,4 C 56 % 1024,1 hPa 0,0 l/m 2 min 0 min 697 W/m 12,9 km/h (3 Bft) 100,00 %
18.09.2020 12:54 22,8 C 28,9 C 19,4 C 57 % 1024,1 hPa 0,0 l/m 2 min 0 min 698 W/m 6,4 km/h (2 Bft) 97,87 %
18.09.2020 12:56 22,9 C 28,9 C 20,0 C 57 % 1024,1 hPa 0,0 l/m 2 min 0 min 700 W/m 6,4 km/h (2 Bft) 97,87 %
18.09.2020 12:58 23,1 C 29,4 C 20,0 C 58 % 1024,1 hPa 0,0 l/m 2 min 0 min 701 W/m 6,4 km/h (2 Bft) 100,00 %
18.09.2020 13:00 23,1 C 29,4 C 19,4 C 56 % 1024,1 hPa 0,0 l/m 2 min 0 min 703 W/m 6,4 km/h (2 Bft) 100,00 %
18.09.2020 13:02 23,2 C 30,0 C 19,4 C 57 % 1024,0 hPa 0,0 l/m 2 min 0 min 705 W/m 6,4 km/h (2 Bft) 97,87 %
18.09.2020 13:04 23,3 C 30,0 C 19,4 C 58 % 1024,0 hPa 0,0 l/m 2 min 0 min 704 W/m 3,2 km/h (1 Bft) 97,83 %
18.09.2020 13:06 23,3 C 30,0 C 19,4 C 55 % 1024,0 hPa 0,0 l/m 2 min 0 min 706 W/m 9,7 km/h (2 Bft) 100,00 %
18.09.2020 13:08 23,4 C 29,4 C 20,0 C 56 % 1024,0 hPa 0,0 l/m 2 min 0 min 708 W/m 9,7 km/h (2 Bft) 97,87 %
18.09.2020 13:10 23,5 C 29,4 C 20,0 C 54 % 1023,9 hPa 0,0 l/m 2 min 0 min 708 W/m 9,7 km/h (2 Bft) 97,87 %
18.09.2020 13:12 23,6 C 30,0 C 20,0 C 58 % 1023,9 hPa 0,0 l/m 2 min 0 min 709 W/m 6,4 km/h (2 Bft) 100,00 %
18.09.2020 13:14 23,7 C 30,0 C 20,6 C 57 % 1023,9 hPa 0,0 l/m 2 min 0 min 710 W/m 6,4 km/h (2 Bft) 100,00 %
18.09.2020 13:16 23,7 C 30,0 C 20,6 C 57 % 1023,9 hPa 0,0 l/m 2 min 0 min 709 W/m 3,2 km/h (1 Bft) 100,00 %
18.09.2020 13:18 23,8 C 30,6 C 20,0 C 57 % 1023,9 hPa 0,0 l/m 2 min 0 min 707 W/m 3,2 km/h (1 Bft) 95,74 %
18.09.2020 13:20 23,9 C 30,0 C 20,0 C 56 % 1023,9 hPa 0,0 l/m 2 min 0 min 708 W/m 9,7 km/h (2 Bft) 95,74 %
18.09.2020 13:22 24,0 C 30,0 C 20,6 C 54 % 1023,9 hPa 0,0 l/m 2 min 0 min 709 W/m 6,4 km/h (2 Bft) 100,00 %
18.09.2020 13:24 24,0 C 29,4 C 20,6 C 54 % 1023,9 hPa 0,0 l/m 2 min 0 min 712 W/m 6,4 km/h (2 Bft) 100,00 %
18.09.2020 13:26 24,1 C 30,6 C 20,6 C 58 % 1023,9 hPa 0,0 l/m 2 min 0 min 714 W/m 3,2 km/h (1 Bft) 97,87 %
18.09.2020 13:28 24,1 C 30,6 C 20,6 C 55 % 1023,9 hPa 0,0 l/m 2 min 0 min 716 W/m 6,4 km/h (2 Bft) 97,87 %
18.09.2020 13:30 24,2 C 30,0 C 21,1 C 54 % 1023,8 hPa 0,0 l/m 2 min 0 min 715 W/m 6,4 km/h (2 Bft) 95,74 %
18.09.2020 13:32 24,2 C 30,0 C 21,1 C 54 % 1023,8 hPa 0,0 l/m 2 min 0 min 711 W/m 6,4 km/h (2 Bft) 97,87 %
18.09.2020 13:34 24,3 C 30,0 C 21,1 C 54 % 1023,8 hPa 0,0 l/m 2 min 0 min 713 W/m 16,1 km/h (3 Bft) 97,87 %
18.09.2020 13:36 24,3 C 30,0 C 21,1 C 54 % 1023,8 hPa 0,0 l/m 2 min 0 min 715 W/m 12,9 km/h (3 Bft) 97,83 %
18.09.2020 13:38 24,3 C 30,6 C 21,1 C 56 % 1023,7 hPa 0,0 l/m 2 min 0 min 710 W/m 6,4 km/h (2 Bft) 95,74 %
18.09.2020 13:40 24,4 C 30,0 C 21,7 C 53 % 1023,8 hPa 0,0 l/m 2 min 0 min 706 W/m 6,4 km/h (2 Bft) 95,74 %
18.09.2020 13:42 24,4 C 30,0 C 21,7 C 54 % 1023,8 hPa 0,0 l/m 2 min 0 min 707 W/m 16,1 km/h (3 Bft) 97,87 %
18.09.2020 13:44 24,5 C 30,0 C 21,7 C 54 % 1023,7 hPa 0,0 l/m 2 min 0 min 705 W/m 9,7 km/h (2 Bft) 97,87 %
18.09.2020 13:46 24,5 C 30,6 C 22,8 C 54 % 1023,7 hPa 0,0 l/m 2 min 0 min 707 W/m 6,4 km/h (2 Bft) 97,87 %
18.09.2020 13:48 24,6 C 30,6 C 23,9 C 54 % 1023,7 hPa 0,0 l/m 2 min 0 min 706 W/m 6,4 km/h (2 Bft) 97,87 %
18.09.2020 13:50 24,6 C 30,0 C 25,0 C 54 % 1023,6 hPa 0,0 l/m 2 min 0 min 705 W/m 9,7 km/h (2 Bft) 97,83 %
18.09.2020 13:52 24,6 C 30,0 C 25,6 C 55 % 1023,7 hPa 0,0 l/m 2 min 0 min 704 W/m 6,4 km/h (2 Bft) 97,87 %
18.09.2020 13:54 24,6 C 30,0 C 26,1 C 54 % 1023,7 hPa 0,0 l/m 2 min 0 min 702 W/m 12,9 km/h (3 Bft) 95,74 %
18.09.2020 13:56 24,7 C 30,0 C 26,7 C 55 % 1023,6 hPa 0,0 l/m 2 min 0 min 706 W/m 6,4 km/h (2 Bft) 95,74 %
18.09.2020 13:58 24,7 C 30,6 C 25,6 C 54 % 1023,6 hPa 0,0 l/m 2 min 0 min 705 W/m 6,4 km/h (2 Bft) 97,87 %
18.09.2020 14:00 24,7 C 30,0 C 24,4 C 53 % 1023,6 hPa 0,0 l/m 2 min 0 min 701 W/m 16,1 km/h (3 Bft) 97,83 %
18.09.2020 14:02 24,8 C 30,6 C 23,9 C 54 % 1023,6 hPa 0,0 l/m 2 min 0 min 702 W/m 6,4 km/h (2 Bft) 97,87 %
18.09.2020 14:04 24,8 C 30,6 C 23,3 C 55 % 1023,6 hPa 0,0 l/m 2 min 0 min 702 W/m 9,7 km/h (2 Bft) 95,74 %
18.09.2020 14:06 24,9 C 30,6 C 22,8 C 54 % 1023,6 hPa 0,0 l/m 2 min 0 min 706 W/m 9,7 km/h (2 Bft) 97,87 %
18.09.2020 14:08 25,0 C 31,1 C 22,8 C 55 % 1023,5 hPa 0,0 l/m 2 min 0 min 705 W/m 9,7 km/h (2 Bft) 97,87 %
18.09.2020 14:10 25,1 C 31,1 C 22,2 C 55 % 1023,6 hPa 0,0 l/m 2 min 0 min 705 W/m 6,4 km/h (2 Bft) 97,87 %
18.09.2020 14:12 25,1 C 30,6 C 22,2 C 53 % 1023,5 hPa 0,0 l/m 2 min 0 min 700 W/m 6,4 km/h (2 Bft) 95,65 %
18.09.2020 14:14 25,1 C 30,0 C 22,2 C 52 % 1023,4 hPa 0,0 l/m 2 min 0 min 698 W/m 9,7 km/h (2 Bft) 97,87 %
18.09.2020 14:16 25,1 C 30,0 C 22,2 C 54 % 1023,4 hPa 0,0 l/m 2 min 0 min 701 W/m 9,7 km/h (2 Bft) 97,87 %
18.09.2020 14:18 25,2 C 30,0 C 22,2 C 53 % 1023,4 hPa 0,0 l/m 2 min 0 min 698 W/m 6,4 km/h (2 Bft) 100,00 %
18.09.2020 14:20 25,2 C 30,6 C 22,2 C 55 % 1023,4 hPa 0,0 l/m 2 min 0 min 696 W/m 9,7 km/h (2 Bft) 100,00 %
18.09.2020 14:22 25,2 C 30,0 C 22,2 C 52 % 1023,3 hPa 0,0 l/m 2 min 0 min 695 W/m 12,9 km/h (3 Bft) 100,00 %
18.09.2020 14:24 25,2 C 29,4 C 22,2 C 53 % 1023,3 hPa 0,0 l/m 2 min 0 min 693 W/m 9,7 km/h (2 Bft) 100,00 %
18.09.2020 14:26 25,2 C 30,0 C 22,2 C 54 % 1023,3 hPa 0,0 l/m 2 min 0 min 691 W/m 6,4 km/h (2 Bft) 100,00 %
18.09.2020 14:28 25,2 C 30,6 C 22,2 C 53 % 1023,2 hPa 0,0 l/m 2 min 0 min 690 W/m 6,4 km/h (2 Bft) 100,00 %
18.09.2020 14:30 25,2 C 30,6 C 22,2 C 54 % 1023,2 hPa 0,0 l/m 2 min 0 min 691 W/m 6,4 km/h (2 Bft) 97,87 %
18.09.2020 14:32 25,3 C 30,6 C 22,2 C 54 % 1023,2 hPa 0,0 l/m 2 min 0 min 690 W/m 6,4 km/h (2 Bft) 97,87 %
18.09.2020 14:34 25,3 C 30,6 C 22,2 C 54 % 1023,2 hPa 0,0 l/m 2 min 0 min 688 W/m 6,4 km/h (2 Bft) 97,83 %
18.09.2020 14:36 25,4 C 30,6 C 22,2 C 54 % 1023,1 hPa 0,0 l/m 2 min 0 min 686 W/m 6,4 km/h (2 Bft) 95,74 %
18.09.2020 14:38 25,4 C 30,6 C 22,2 C 55 % 1023,1 hPa 0,0 l/m 2 min 0 min 683 W/m 9,7 km/h (2 Bft) 97,87 %
18.09.2020 14:40 25,4 C 31,1 C 22,2 C 54 % 1023,1 hPa 0,0 l/m 2 min 0 min 679 W/m 6,4 km/h (2 Bft) 95,74 %
18.09.2020 14:42 25,5 C 30,6 C 22,2 C 53 % 1023,1 hPa 0,0 l/m 2 min 0 min 675 W/m 6,4 km/h (2 Bft) 95,74 %
18.09.2020 14:44 25,6 C 30,6 C 22,8 C 52 % 1023,0 hPa 0,0 l/m 2 min 0 min 673 W/m 12,9 km/h (3 Bft) 93,62 %
18.09.2020 14:46 25,6 C 30,6 C 22,8 C 53 % 1023,1 hPa 0,0 l/m 2 min 0 min 668 W/m 12,9 km/h (3 Bft) 95,65 %
18.09.2020 14:48 25,6 C 30,6 C 22,8 C 53 % 1023,1 hPa 0,0 l/m 2 min 0 min 665 W/m 9,7 km/h (2 Bft) 95,74 %
18.09.2020 14:50 25,6 C 30,6 C 22,8 C 53 % 1023,0 hPa 0,0 l/m 2 min 0 min 663 W/m 6,4 km/h (2 Bft) 95,74 %
18.09.2020 14:52 25,7 C 30,6 C 22,8 C 54 % 1023,0 hPa 0,0 l/m 2 min 0 min 664 W/m 6,4 km/h (2 Bft) 93,62 %
18.09.2020 14:54 25,7 C 30,6 C 22,8 C 53 % 1023,0 hPa 0,0 l/m 2 min 0 min 661 W/m 12,9 km/h (3 Bft) 97,87 %
18.09.2020 14:56 25,7 C 30,6 C 22,8 C 52 % 1023,1 hPa 0,0 l/m 2 min 0 min 659 W/m 9,7 km/h (2 Bft) 93,62 %
18.09.2020 14:58 25,7 C 30,6 C 22,8 C 53 % 1023,0 hPa 0,0 l/m 2 min 0 min 657 W/m 6,4 km/h (2 Bft) 95,65 %
18.09.2020 15:00 25,8 C 31,1 C 22,8 C 54 % 1023,0 hPa 0,0 l/m 2 min 0 min 655 W/m 6,4 km/h (2 Bft) 93,62 %
18.09.2020 15:02 25,8 C 30,6 C 22,8 C 54 % 1022,9 hPa 0,0 l/m 2 min 0 min 652 W/m 6,4 km/h (2 Bft) 93,62 %
18.09.2020 15:04 25,8 C 30,6 C 23,3 C 53 % 1022,8 hPa 0,0 l/m 2 min 0 min 650 W/m 12,9 km/h (3 Bft) 95,74 %
18.09.2020 15:06 25,9 C 30,0 C 23,3 C 52 % 1022,9 hPa 0,0 l/m 2 min 0 min 647 W/m 9,7 km/h (2 Bft) 93,62 %
18.09.2020 15:08 25,9 C 30,0 C 23,3 C 51 % 1022,8 hPa 0,0 l/m 2 min 0 min 644 W/m 12,9 km/h (3 Bft) 95,74 %
18.09.2020 15:10 25,9 C 30,0 C 23,3 C 52 % 1022,8 hPa 0,0 l/m 2 min 0 min 643 W/m 6,4 km/h (2 Bft) 95,65 %
18.09.2020 15:12 25,9 C 30,0 C 23,3 C 52 % 1022,8 hPa 0,0 l/m 2 min 0 min 638 W/m 19,3 km/h (3 Bft) 95,74 %
18.09.2020 15:14 25,9 C 30,0 C 23,3 C 51 % 1022,8 hPa 0,0 l/m 2 min 0 min 636 W/m 12,9 km/h (3 Bft) 95,74 %
18.09.2020 15:16 25,9 C 30,0 C 23,3 C 51 % 1022,8 hPa 0,0 l/m 2 min 0 min 633 W/m 9,7 km/h (2 Bft) 95,74 %
18.09.2020 15:18 25,9 C 30,0 C 23,3 C 52 % 1022,7 hPa 0,0 l/m 2 min 0 min 629 W/m 9,7 km/h (2 Bft) 93,62 %
18.09.2020 15:20 25,9 C 30,0 C 23,3 C 51 % 1022,7 hPa 0,0 l/m 2 min 0 min 626 W/m 6,4 km/h (2 Bft) 95,65 %
18.09.2020 15:22 25,9 C 30,6 C 23,3 C 52 % 1022,7 hPa 0,0 l/m 2 min 0 min 622 W/m 12,9 km/h (3 Bft) 95,74 %
18.09.2020 15:24 25,9 C 30,6 C 23,3 C 51 % 1022,7 hPa 0,0 l/m 2 min 0 min 619 W/m 12,9 km/h (3 Bft) 95,74 %
18.09.2020 15:26 25,9 C 30,0 C 23,3 C 50 % 1022,7 hPa 0,0 l/m 2 min 0 min 618 W/m 12,9 km/h (3 Bft) 97,87 %
18.09.2020 15:28 25,9 C 29,4 C 23,9 C 48 % 1022,6 hPa 0,0 l/m 2 min 0 min 616 W/m 25,7 km/h (4 Bft) 95,74 %
18.09.2020 15:30 25,9 C 28,9 C 23,9 C 47 % 1022,6 hPa 0,0 l/m 2 min 0 min 611 W/m 19,3 km/h (3 Bft) 97,87 %
18.09.2020 15:32 25,9 C 28,9 C 23,9 C 48 % 1022,6 hPa 0,0 l/m 2 min 0 min 604 W/m 16,1 km/h (3 Bft) 97,83 %
18.09.2020 15:34 25,9 C 30,0 C 23,9 C 49 % 1022,5 hPa 0,0 l/m 2 min 0 min 601 W/m 12,9 km/h (3 Bft) 97,87 %
18.09.2020 15:36 25,9 C 30,0 C 23,9 C 49 % 1022,6 hPa 0,0 l/m 2 min 0 min 600 W/m 6,4 km/h (2 Bft) 97,87 %
18.09.2020 15:38 25,9 C 30,0 C 23,9 C 48 % 1022,5 hPa 0,0 l/m 2 min 0 min 596 W/m 9,7 km/h (2 Bft) 97,87 %
18.09.2020 15:40 26,0 C 30,0 C 23,9 C 48 % 1022,5 hPa 0,0 l/m 2 min 0 min 592 W/m 6,4 km/h (2 Bft) 97,87 %
18.09.2020 15:42 26,0 C 29,4 C 23,9 C 48 % 1022,5 hPa 0,0 l/m 2 min 0 min 588 W/m 12,9 km/h (3 Bft) 100,00 %
18.09.2020 15:44 26,0 C 29,4 C 23,9 C 48 % 1022,5 hPa 0,0 l/m 2 min 0 min 582 W/m 12,9 km/h (3 Bft) 100,00 %
18.09.2020 15:46 26,0 C 29,4 C 24,4 C 48 % 1022,5 hPa 0,0 l/m 2 min 0 min 576 W/m 12,9 km/h (3 Bft) 100,00 %
18.09.2020 15:48 26,0 C 29,4 C 24,4 C 48 % 1022,5 hPa 0,0 l/m 2 min 0 min 574 W/m 9,7 km/h (2 Bft) 100,00 %
18.09.2020 15:50 26,1 C 30,0 C 23,9 C 51 % 1022,4 hPa 0,0 l/m 2 min 0 min 570 W/m 9,7 km/h (2 Bft) 97,87 %
18.09.2020 15:52 26,1 C 30,0 C 23,9 C 50 % 1022,4 hPa 0,0 l/m 2 min 0 min 567 W/m 9,7 km/h (2 Bft) 100,00 %
18.09.2020 15:54 26,1 C 30,0 C 23,9 C 51 % 1022,4 hPa 0,0 l/m 2 min 0 min 563 W/m 6,4 km/h (2 Bft) 97,87 %
18.09.2020 15:56 26,2 C 30,6 C 23,9 C 52 % 1022,4 hPa 0,0 l/m 2 min 0 min 558 W/m 3,2 km/h (1 Bft) 97,83 %
18.09.2020 15:58 26,2 C 30,6 C 23,9 C 52 % 1022,3 hPa 0,0 l/m 2 min 0 min 554 W/m 6,4 km/h (2 Bft) 97,87 %
18.09.2020 16:00 26,2 C 30,0 C 23,9 C 48 % 1022,4 hPa 0,0 l/m 2 min 0 min 550 W/m 22,5 km/h (4 Bft) 95,74 %
18.09.2020 16:02 26,2 C 30,0 C 23,9 C 48 % 1022,2 hPa 0,0 l/m 2 min 0 min 545 W/m 12,9 km/h (3 Bft) 100,00 %
18.09.2020 16:04 26,3 C 29,4 C 23,9 C 47 % 1022,2 hPa 0,0 l/m 2 min 0 min 540 W/m 12,9 km/h (3 Bft) 97,87 %
18.09.2020 16:06 26,3 C 29,4 C 24,4 C 46 % 1022,2 hPa 0,0 l/m 2 min 0 min 534 W/m 9,7 km/h (2 Bft) 100,00 %
18.09.2020 16:08 26,3 C 29,4 C 24,4 C 47 % 1022,2 hPa 0,0 l/m 2 min 0 min 529 W/m 9,7 km/h (2 Bft) 97,83 %
18.09.2020 16:10 26,3 C 28,9 C 24,4 C 47 % 1022,2 hPa 0,0 l/m 2 min 0 min 527 W/m 16,1 km/h (3 Bft) 95,74 %
18.09.2020 16:12 26,3 C 28,9 C 24,4 C 46 % 1022,1 hPa 0,0 l/m 2 min 0 min 525 W/m 16,1 km/h (3 Bft) 97,87 %
18.09.2020 16:14 26,3 C 29,4 C 25,0 C 47 % 1022,0 hPa 0,0 l/m 2 min 0 min 519 W/m 12,9 km/h (3 Bft) 100,00 %
18.09.2020 16:16 26,3 C 30,0 C 25,6 C 48 % 1022,0 hPa 0,0 l/m 2 min 0 min 515 W/m 6,4 km/h (2 Bft) 97,87 %
18.09.2020 16:18 26,3 C 29,4 C 25,6 C 47 % 1022,0 hPa 0,0 l/m 2 min 0 min 513 W/m 9,7 km/h (2 Bft) 97,83 %
18.09.2020 16:20 26,3 C 29,4 C 26,1 C 48 % 1022,0 hPa 0,0 l/m 2 min 0 min 508 W/m 6,4 km/h (2 Bft) 97,87 %
18.09.2020 16:22 26,3 C 29,4 C 27,8 C 47 % 1022,0 hPa 0,0 l/m 2 min 0 min 501 W/m 6,4 km/h (2 Bft) 97,87 %
18.09.2020 16:24 26,4 C 30,0 C 28,9 C 48 % 1021,9 hPa 0,0 l/m 2 min 0 min 494 W/m 12,9 km/h (3 Bft) 97,50 %
18.09.2020 16:26 26,4 C 30,0 C 28,9 C 48 % 1021,9 hPa 0,0 l/m 2 min 0 min 488 W/m 12,9 km/h (3 Bft) 97,87 %
18.09.2020 16:28 26,4 C 29,4 C 27,8 C 47 % 1022,0 hPa 0,0 l/m 2 min 0 min 485 W/m 16,1 km/h (3 Bft) 97,87 %
18.09.2020 16:30 26,4 C 28,9 C 27,2 C 45 % 1021,9 hPa 0,0 l/m 2 min 0 min 481 W/m 16,1 km/h (3 Bft) 95,74 %
18.09.2020 16:32 26,4 C 28,9 C 26,7 C 45 % 1021,9 hPa 0,0 l/m 2 min 0 min 477 W/m 16,1 km/h (3 Bft) 97,87 %
18.09.2020 16:34 26,4 C 28,3 C 25,6 C 46 % 1021,9 hPa 0,0 l/m 2 min 0 min 473 W/m 22,5 km/h (4 Bft) 97,83 %
18.09.2020 16:36 26,4 C 28,3 C 25,6 C 45 % 1021,9 hPa 0,0 l/m 2 min 0 min 466 W/m 12,9 km/h (3 Bft) 97,87 %
18.09.2020 16:38 26,4 C 28,3 C 27,2 C 46 % 1021,8 hPa 0,0 l/m 2 min 0 min 461 W/m 12,9 km/h (3 Bft) 97,87 %
18.09.2020 16:40 26,3 C 28,3 C 28,9 C 46 % 1021,8 hPa 0,0 l/m 2 min 0 min 454 W/m 9,7 km/h (2 Bft) 97,87 %
18.09.2020 16:42 26,3 C 28,3 C 30,0 C 47 % 1021,8 hPa 0,0 l/m 2 min 0 min 447 W/m 9,7 km/h (2 Bft) 97,87 %
18.09.2020 16:44 26,3 C 28,3 C 30,0 C 46 % 1021,8 hPa 0,0 l/m 2 min 0 min 443 W/m 16,1 km/h (3 Bft) 95,74 %
18.09.2020 16:46 26,4 C 28,9 C 30,0 C 49 % 1021,8 hPa 0,0 l/m 2 min 0 min 439 W/m 6,4 km/h (2 Bft) 97,83 %
18.09.2020 16:48 26,4 C 28,9 C 30,0 C 48 % 1021,8 hPa 0,0 l/m 2 min 0 min 432 W/m 6,4 km/h (2 Bft) 97,87 %
18.09.2020 16:50 26,4 C 28,9 C 30,0 C 47 % 1021,8 hPa 0,0 l/m 2 min 0 min 428 W/m 12,9 km/h (3 Bft) 97,87 %
18.09.2020 16:52 26,4 C 28,9 C 30,0 C 49 % 1021,9 hPa 0,0 l/m 2 min 0 min 421 W/m 6,4 km/h (2 Bft) 97,87 %
18.09.2020 16:54 26,4 C 28,9 C 30,0 C 51 % 1021,9 hPa 0,0 l/m 2 min 0 min 416 W/m 6,4 km/h (2 Bft) 100,00 %
18.09.2020 16:56 26,4 C 28,9 C 29,4 C 47 % 1021,8 hPa 0,0 l/m 2 min 0 min 410 W/m 12,9 km/h (3 Bft) 97,87 %
18.09.2020 16:58 26,4 C 29,4 C 28,9 C 46 % 1021,8 hPa 0,0 l/m 2 min 0 min 404 W/m 6,4 km/h (2 Bft) 97,83 %
18.09.2020 17:00 26,4 C 29,4 C 28,9 C 48 % 1021,8 hPa 0,0 l/m 2 min 0 min 399 W/m 6,4 km/h (2 Bft) 97,87 %
18.09.2020 17:02 26,4 C 28,9 C 28,3 C 48 % 1021,8 hPa 0,0 l/m 2 min 0 min 395 W/m 6,4 km/h (2 Bft) 97,87 %
18.09.2020 17:04 26,4 C 28,3 C 27,8 C 47 % 1021,8 hPa 0,0 l/m 2 min 0 min 391 W/m 12,9 km/h (3 Bft) 97,87 %
18.09.2020 17:06 26,4 C 28,3 C 27,2 C 47 % 1021,8 hPa 0,0 l/m 2 min 0 min 385 W/m 12,9 km/h (3 Bft) 97,87 %
18.09.2020 17:08 26,4 C 28,3 C 25,6 C 48 % 1021,8 hPa 0,0 l/m 2 min 0 min 379 W/m 6,4 km/h (2 Bft) 95,74 %
18.09.2020 17:10 26,4 C 27,8 C 24,4 C 49 % 1021,8 hPa 0,0 l/m 2 min 0 min 373 W/m 6,4 km/h (2 Bft) 97,83 %
18.09.2020 17:12 26,4 C 27,8 C 23,3 C 47 % 1021,7 hPa 0,0 l/m 2 min 0 min 367 W/m 6,4 km/h (2 Bft) 97,87 %
18.09.2020 17:14 26,3 C 27,8 C 22,8 C 48 % 1021,7 hPa 0,0 l/m 2 min 0 min 363 W/m 9,7 km/h (2 Bft) 97,87 %
18.09.2020 17:16 26,3 C 27,2 C 22,8 C 46 % 1021,7 hPa 0,0 l/m 2 min 0 min 358 W/m 6,4 km/h (2 Bft) 97,87 %
18.09.2020 17:18 26,2 C 27,2 C 22,2 C 47 % 1021,7 hPa 0,0 l/m 2 min 0 min 353 W/m 9,7 km/h (2 Bft) 97,87 %
18.09.2020 17:20 26,1 C 27,2 C 22,2 C 48 % 1021,7 hPa 0,0 l/m 2 min 0 min 348 W/m 6,4 km/h (2 Bft) 97,87 %
18.09.2020 17:22 26,1 C 26,7 C 21,7 C 48 % 1021,7 hPa 0,0 l/m 2 min 0 min 339 W/m 9,7 km/h (2 Bft) 97,83 %
18.09.2020 17:24 25,9 C 26,7 C 21,7 C 48 % 1021,7 hPa 0,0 l/m 2 min 0 min 334 W/m 6,4 km/h (2 Bft) 95,74 %
18.09.2020 17:26 25,9 C 26,7 C 21,7 C 48 % 1021,7 hPa 0,0 l/m 2 min 0 min 328 W/m 6,4 km/h (2 Bft) 95,74 %
18.09.2020 17:28 25,8 C 26,1 C 21,1 C 47 % 1021,6 hPa 0,0 l/m 2 min 0 min 322 W/m 12,9 km/h (3 Bft) 97,87 %
18.09.2020 17:30 25,8 C 26,1 C 21,1 C 47 % 1021,7 hPa 0,0 l/m 2 min 0 min 314 W/m 6,4 km/h (2 Bft) 97,87 %
18.09.2020 17:32 25,7 C 26,1 C 21,1 C 47 % 1021,6 hPa 0,0 l/m 2 min 0 min 309 W/m 9,7 km/h (2 Bft) 97,87 %
18.09.2020 17:34 25,7 C 26,1 C 21,1 C 49 % 1021,7 hPa 0,0 l/m 2 min 0 min 303 W/m 6,4 km/h (2 Bft) 97,83 %
18.09.2020 17:36 25,6 C 26,1 C 21,1 C 49 % 1021,6 hPa 0,0 l/m 2 min 0 min 299 W/m 9,7 km/h (2 Bft) 97,87 %
18.09.2020 17:38 25,5 C 25,6 C 21,1 C 48 % 1021,6 hPa 0,0 l/m 2 min 0 min 292 W/m 12,9 km/h (3 Bft) 97,87 %
18.09.2020 17:40 25,4 C 25,6 C 21,1 C 49 % 1021,5 hPa 0,0 l/m 2 min 0 min 285 W/m 6,4 km/h (2 Bft) 97,87 %
18.09.2020 17:42 25,2 C 24,4 C 20,6 C 48 % 1021,5 hPa 0,0 l/m 2 min 0 min 278 W/m 9,7 km/h (2 Bft) 95,74 %
18.09.2020 17:44 25,1 C 23,3 C 20,6 C 48 % 1021,5 hPa 0,0 l/m 2 min 0 min 234 W/m 9,7 km/h (2 Bft) 97,87 %
18.09.2020 17:46 24,9 C 22,8 C 20,6 C 49 % 1021,4 hPa 0,0 l/m 0 min 0 min 112 W/m 12,9 km/h (3 Bft) 97,83 %
18.09.2020 17:48 24,8 C 22,2 C 20,6 C 49 % 1021,4 hPa 0,0 l/m 0 min 0 min 83 W/m 12,9 km/h (3 Bft) 97,87 %
18.09.2020 17:50 24,7 C 22,2 C 20,6 C 50 % 1021,4 hPa 0,0 l/m 0 min 0 min 81 W/m 9,7 km/h (2 Bft) 97,87 %
18.09.2020 17:52 24,6 C 22,2 C 20,6 C 50 % 1021,4 hPa 0,0 l/m 0 min 0 min 80 W/m 6,4 km/h (2 Bft) 97,87 %
18.09.2020 17:54 24,4 C 21,7 C 20,6 C 49 % 1021,4 hPa 0,0 l/m 0 min 0 min 78 W/m 12,9 km/h (3 Bft) 100,00 %
18.09.2020 17:56 24,2 C 21,7 C 20,6 C 50 % 1021,5 hPa 0,0 l/m 0 min 0 min 77 W/m 12,9 km/h (3 Bft) 100,00 %
18.09.2020 17:58 24,1 C 21,7 C 20,0 C 50 % 1021,5 hPa 0,0 l/m 0 min 0 min 76 W/m 6,4 km/h (2 Bft) 100,00 %
18.09.2020 18:00 24,0 C 21,1 C 20,0 C 50 % 1021,6 hPa 0,0 l/m 0 min 0 min 74 W/m 9,7 km/h (2 Bft) 97,87 %
18.09.2020 18:02 23,8 C 21,1 C 20,0 C 50 % 1021,5 hPa 0,0 l/m 0 min 0 min 72 W/m 9,7 km/h (2 Bft) 100,00 %
18.09.2020 18:04 23,7 C 21,1 C 20,0 C 50 % 1021,6 hPa 0,0 l/m 0 min 0 min 70 W/m 9,7 km/h (2 Bft) 100,00 %
18.09.2020 18:08 23,4 C 21,1 C 20,0 C 51 % 1021,5 hPa 0,0 l/m 0 min 0 min 68 W/m 12,9 km/h (3 Bft) 97,85 %
18.09.2020 18:10 23,3 C 21,1 C 20,0 C 51 % 1021,5 hPa 0,0 l/m 0 min 0 min 66 W/m 6,4 km/h (2 Bft) 97,87 %
18.09.2020 18:12 23,2 C 20,6 C 19,4 C 51 % 1021,4 hPa 0,0 l/m 0 min 0 min 63 W/m 6,4 km/h (2 Bft) 97,87 %
18.09.2020 18:14 23,1 C 20,6 C 19,4 C 51 % 1021,4 hPa 0,0 l/m 0 min 0 min 62 W/m 6,4 km/h (2 Bft) 97,87 %
18.09.2020 18:16 23,0 C 20,6 C 19,4 C 52 % 1021,4 hPa 0,0 l/m 0 min 0 min 62 W/m 6,4 km/h (2 Bft) 97,87 %
18.09.2020 18:18 22,9 C 20,6 C 19,4 C 52 % 1021,4 hPa 0,0 l/m 0 min 0 min 59 W/m 9,7 km/h (2 Bft) 95,74 %
18.09.2020 18:20 22,8 C 20,6 C 19,4 C 52 % 1021,4 hPa 0,0 l/m 0 min 0 min 58 W/m 6,4 km/h (2 Bft) 97,83 %
18.09.2020 18:22 22,7 C 20,6 C 19,4 C 52 % 1021,4 hPa 0,0 l/m 0 min 0 min 56 W/m 6,4 km/h (2 Bft) 97,87 %
18.09.2020 18:24 22,6 C 20,6 C 19,4 C 53 % 1021,4 hPa 0,0 l/m 0 min 0 min 54 W/m 6,4 km/h (2 Bft) 97,87 %
18.09.2020 18:26 22,5 C 20,6 C 19,4 C 53 % 1021,4 hPa 0,0 l/m 0 min 0 min 53 W/m 9,7 km/h (2 Bft) 97,87 %
18.09.2020 18:28 22,4 C 20,6 C 19,4 C 52 % 1021,4 hPa 0,0 l/m 0 min 0 min 52 W/m 6,4 km/h (2 Bft) 97,87 %
18.09.2020 18:30 22,3 C 20,6 C 18,9 C 53 % 1021,3 hPa 0,0 l/m 0 min 0 min 51 W/m 6,4 km/h (2 Bft) 97,87 %
18.09.2020 18:32 22,2 C 20,0 C 18,9 C 53 % 1021,4 hPa 0,0 l/m 0 min 0 min 49 W/m 6,4 km/h (2 Bft) 97,83 %
18.09.2020 18:34 22,1 C 20,0 C 18,9 C 53 % 1021,4 hPa 0,0 l/m 0 min 0 min 48 W/m 9,7 km/h (2 Bft) 97,87 %
18.09.2020 18:36 22,0 C 20,0 C 18,9 C 53 % 1021,4 hPa 0,0 l/m 0 min 0 min 47 W/m 6,4 km/h (2 Bft) 95,74 %
18.09.2020 18:38 21,9 C 20,0 C 18,9 C 54 % 1021,3 hPa 0,0 l/m 0 min 0 min 46 W/m 6,4 km/h (2 Bft) 97,87 %
18.09.2020 18:40 21,8 C 20,0 C 18,9 C 54 % 1021,3 hPa 0,0 l/m 0 min 0 min 44 W/m 6,4 km/h (2 Bft) 97,87 %
18.09.2020 18:42 21,8 C 19,4 C 18,9 C 54 % 1021,4 hPa 0,0 l/m 0 min 0 min 42 W/m 3,2 km/h (1 Bft) 95,74 %
18.09.2020 18:44 21,7 C 19,4 C 18,9 C 54 % 1021,3 hPa 0,0 l/m 0 min 0 min 41 W/m 3,2 km/h (1 Bft) 97,83 %
18.09.2020 18:46 21,6 C 19,4 C 18,9 C 54 % 1021,3 hPa 0,0 l/m 0 min 0 min 40 W/m 6,4 km/h (2 Bft) 97,87 %
18.09.2020 18:48 21,6 C 19,4 C 18,3 C 55 % 1021,4 hPa 0,0 l/m 0 min 0 min 39 W/m 6,4 km/h (2 Bft) 95,74 %
18.09.2020 18:50 21,5 C 19,4 C 18,3 C 55 % 1021,4 hPa 0,0 l/m 0 min 0 min 38 W/m 3,2 km/h (1 Bft) 97,87 %
18.09.2020 18:52 21,4 C 18,9 C 18,3 C 55 % 1021,4 hPa 0,0 l/m 0 min 0 min 36 W/m 9,7 km/h (2 Bft) 97,87 %
18.09.2020 18:54 21,3 C 18,9 C 18,3 C 55 % 1021,4 hPa 0,0 l/m 0 min 0 min 35 W/m 12,9 km/h (3 Bft) 95,74 %
18.09.2020 18:56 21,3 C 18,9 C 18,3 C 55 % 1021,4 hPa 0,0 l/m 0 min 0 min 33 W/m 6,4 km/h (2 Bft) 97,83 %
18.09.2020 18:58 21,2 C 18,9 C 18,3 C 55 % 1021,4 hPa 0,0 l/m 0 min 0 min 32 W/m 6,4 km/h (2 Bft) 97,87 %
18.09.2020 19:00 21,1 C 18,9 C 18,3 C 55 % 1021,4 hPa 0,0 l/m 0 min 0 min 31 W/m 6,4 km/h (2 Bft) 93,62 %
18.09.2020 19:02 21,1 C 18,9 C 17,8 C 55 % 1021,5 hPa 0,0 l/m 0 min 0 min 30 W/m 6,4 km/h (2 Bft) 97,87 %
18.09.2020 19:04 21,0 C 18,9 C 17,8 C 55 % 1021,5 hPa 0,0 l/m 0 min 0 min 28 W/m 6,4 km/h (2 Bft) 97,87 %
18.09.2020 19:06 20,9 C 18,3 C 17,8 C 56 % 1021,5 hPa 0,0 l/m 0 min 0 min 26 W/m 6,4 km/h (2 Bft) 97,83 %
18.09.2020 19:08 20,8 C 18,3 C 17,8 C 56 % 1021,5 hPa 0,0 l/m 0 min 0 min 25 W/m 6,4 km/h (2 Bft) 97,87 %
18.09.2020 19:10 20,7 C 18,3 C 17,8 C 56 % 1021,5 hPa 0,0 l/m 0 min 0 min 24 W/m 3,2 km/h (1 Bft) 97,87 %
18.09.2020 19:12 20,7 C 18,3 C 17,8 C 56 % 1021,5 hPa 0,0 l/m 0 min 0 min 22 W/m 0,0 km/h (0 Bft) 100,00 %
18.09.2020 19:14 20,6 C 18,3 C 17,2 C 56 % 1021,5 hPa 0,0 l/m 0 min 0 min 21 W/m 0,0 km/h (0 Bft) 95,74 %
18.09.2020 19:16 20,6 C 17,8 C 17,2 C 56 % 1021,5 hPa 0,0 l/m 0 min 0 min 19 W/m 0,0 km/h (0 Bft) 97,87 %
18.09.2020 19:18 20,5 C 17,8 C 17,2 C 56 % 1021,5 hPa 0,0 l/m 0 min 0 min 18 W/m 0,0 km/h (0 Bft) 97,83 %
18.09.2020 19:20 20,4 C 17,8 C 17,2 C 56 % 1021,5 hPa 0,0 l/m 0 min 0 min 17 W/m 0,0 km/h (0 Bft) 97,87 %
18.09.2020 19:22 20,3 C 17,8 C 17,2 C 57 % 1021,5 hPa 0,0 l/m 0 min 0 min 15 W/m 0,0 km/h (0 Bft) 97,87 %
18.09.2020 19:24 20,3 C 17,8 C 16,7 C 57 % 1021,5 hPa 0,0 l/m 0 min 0 min 14 W/m 0,0 km/h (0 Bft) 95,74 %
18.09.2020 19:26 20,2 C 17,8 C 16,7 C 57 % 1021,4 hPa 0,0 l/m 0 min 0 min 12 W/m 0,0 km/h (0 Bft) 97,87 %
18.09.2020 19:28 20,1 C 17,2 C 16,7 C 57 % 1021,5 hPa 0,0 l/m 0 min 0 min 11 W/m 3,2 km/h (1 Bft) 97,87 %
18.09.2020 19:30 20,0 C 17,2 C 16,7 C 57 % 1021,5 hPa 0,0 l/m 0 min 0 min 10 W/m 6,4 km/h (2 Bft) 97,83 %
18.09.2020 19:32 19,9 C 17,2 C 16,7 C 57 % 1021,5 hPa 0,0 l/m 0 min 0 min 8 W/m 12,9 km/h (3 Bft) 95,74 %
18.09.2020 19:34 19,8 C 17,2 C 16,7 C 57 % 1021,5 hPa 0,0 l/m 0 min 0 min 6 W/m 3,2 km/h (1 Bft) 97,87 %
18.09.2020 19:36 19,7 C 17,2 C 16,7 C 57 % 1021,5 hPa 0,0 l/m 0 min 0 min 5 W/m 3,2 km/h (1 Bft) 97,87 %
18.09.2020 19:38 19,7 C 17,2 C 16,7 C 57 % 1021,5 hPa 0,0 l/m 0 min 0 min 4 W/m 6,4 km/h (2 Bft) 97,87 %
18.09.2020 19:40 19,6 C 16,7 C 16,7 C 58 % 1021,5 hPa 0,0 l/m 0 min 0 min 0 W/m 3,2 km/h (1 Bft) 97,87 %
18.09.2020 19:42 19,5 C 16,7 C 16,7 C 58 % 1021,5 hPa 0,0 l/m 0 min 0 min 0 W/m 6,4 km/h (2 Bft) 97,83 %
18.09.2020 19:44 19,4 C 16,7 C 16,7 C 58 % 1021,5 hPa 0,0 l/m 0 min 0 min 0 W/m 3,2 km/h (1 Bft) 95,74 %
18.09.2020 19:46 19,4 C 16,7 C 16,1 C 58 % 1021,5 hPa 0,0 l/m 0 min 0 min 0 W/m 3,2 km/h (1 Bft) 97,87 %
18.09.2020 19:48 19,3 C 16,7 C 16,1 C 59 % 1021,5 hPa 0,0 l/m 0 min 0 min 0 W/m 3,2 km/h (1 Bft) 97,87 %
18.09.2020 19:50 19,2 C 16,7 C 16,1 C 58 % 1021,5 hPa 0,0 l/m 0 min 0 min 0 W/m 3,2 km/h (1 Bft) 97,87 %
18.09.2020 19:52 19,2 C 16,7 C 16,1 C 58 % 1021,6 hPa 0,0 l/m 0 min 0 min 0 W/m 6,4 km/h (2 Bft) 97,87 %
18.09.2020 19:54 19,1 C 16,1 C 16,1 C 58 % 1021,6 hPa 0,0 l/m 0 min 0 min 0 W/m 3,2 km/h (1 Bft) 95,65 %
18.09.2020 19:56 19,0 C 16,1 C 16,1 C 58 % 1021,6 hPa 0,0 l/m 0 min 0 min 0 W/m 0,0 km/h (0 Bft) 97,87 %
18.09.2020 19:58 18,9 C 16,1 C 16,1 C 59 % 1021,6 hPa 0,0 l/m 0 min 0 min 0 W/m 0,0 km/h (0 Bft) 100,00 %
18.09.2020 20:00 18,8 C 16,1 C 15,6 C 59 % 1021,6 hPa 0,0 l/m 0 min 0 min 0 W/m 0,0 km/h (0 Bft) 95,74 %
18.09.2020 20:02 18,8 C 16,1 C 15,6 C 59 % 1021,6 hPa 0,0 l/m 0 min 0 min 0 W/m 0,0 km/h (0 Bft) 97,87 %
18.09.2020 20:04 18,7 C 16,1 C 15,6 C 58 % 1021,6 hPa 0,0 l/m 0 min 0 min 0 W/m 0,0 km/h (0 Bft) 97,83 %
18.09.2020 20:06 18,6 C 15,6 C 15,6 C 58 % 1021,6 hPa 0,0 l/m 0 min 0 min 0 W/m 3,2 km/h (1 Bft) 97,87 %
18.09.2020 20:08 18,6 C 15,6 C 15,6 C 59 % 1021,5 hPa 0,0 l/m 0 min 0 min 0 W/m 3,2 km/h (1 Bft) 95,74 %
18.09.2020 20:10 18,4 C 15,6 C 15,0 C 59 % 1021,6 hPa 0,0 l/m 0 min 0 min 0 W/m 3,2 km/h (1 Bft) 95,74 %
18.09.2020 20:12 18,4 C 15,6 C 15,0 C 59 % 1021,5 hPa 0,0 l/m 0 min 0 min 0 W/m 0,0 km/h (0 Bft) 97,87 %
18.09.2020 20:14 18,3 C 15,6 C 15,0 C 59 % 1021,5 hPa 0,0 l/m 0 min 0 min 0 W/m 0,0 km/h (0 Bft) 95,74 %
18.09.2020 20:16 18,3 C 15,6 C 15,0 C 60 % 1021,5 hPa 0,0 l/m 0 min 0 min 0 W/m 0,0 km/h (0 Bft) 97,83 %
18.09.2020 20:18 18,2 C 15,6 C 15,0 C 60 % 1021,5 hPa 0,0 l/m 0 min 0 min 0 W/m 0,0 km/h (0 Bft) 95,74 %
18.09.2020 20:20 18,1 C 15,6 C 15,0 C 60 % 1021,5 hPa 0,0 l/m 0 min 0 min 0 W/m 0,0 km/h (0 Bft) 97,87 %
18.09.2020 20:22 18,0 C 15,6 C 15,0 C 60 % 1021,5 hPa 0,0 l/m 0 min 0 min 0 W/m 6,4 km/h (2 Bft) 97,87 %
18.09.2020 20:24 17,9 C 15,0 C 15,0 C 60 % 1021,5 hPa 0,0 l/m 0 min 0 min 0 W/m 3,2 km/h (1 Bft) 97,87 %
18.09.2020 20:26 17,8 C 15,6 C 15,0 C 60 % 1021,5 hPa 0,0 l/m 0 min 0 min 0 W/m 0,0 km/h (0 Bft) 97,87 %
18.09.2020 20:28 17,8 C 15,6 C 15,0 C 61 % 1021,5 hPa 0,0 l/m 0 min 0 min 0 W/m 3,2 km/h (1 Bft) 97,83 %
18.09.2020 20:30 17,7 C 15,6 C 15,0 C 61 % 1021,6 hPa 0,0 l/m 0 min 0 min 0 W/m 0,0 km/h (0 Bft) 97,92 %
18.09.2020 20:32 17,6 C 15,6 C 15,0 C 61 % 1021,6 hPa 0,0 l/m 0 min 0 min 0 W/m 0,0 km/h (0 Bft) 95,92 %
18.09.2020 20:34 17,6 C 15,0 C 15,0 C 61 % 1021,6 hPa 0,0 l/m 0 min 0 min 0 W/m 0,0 km/h (0 Bft) 95,74 %
18.09.2020 20:36 17,5 C 15,0 C 15,0 C 61 % 1021,6 hPa 0,0 l/m 0 min 0 min 0 W/m 0,0 km/h (0 Bft) 97,83 %
18.09.2020 20:38 17,4 C 15,0 C 14,4 C 61 % 1021,6 hPa 0,0 l/m 0 min 0 min 0 W/m 0,0 km/h (0 Bft) 97,87 %
18.09.2020 20:40 17,4 C 15,0 C 14,4 C 61 % 1021,7 hPa 0,0 l/m 0 min 0 min 0 W/m 0,0 km/h (0 Bft) 97,87 %
18.09.2020 20:42 17,3 C 15,0 C 14,4 C 61 % 1021,7 hPa 0,0 l/m 0 min 0 min 0 W/m 0,0 km/h (0 Bft) 97,56 %
18.09.2020 20:44 17,3 C 15,0 C 14,4 C 62 % 1021,7 hPa 0,0 l/m 0 min 0 min 0 W/m 0,0 km/h (0 Bft) 97,92 %
18.09.2020 20:46 17,2 C 14,4 C 14,4 C 62 % 1021,7 hPa 0,0 l/m 0 min 0 min 0 W/m 0,0 km/h (0 Bft) 95,83 %
18.09.2020 20:48 17,2 C 14,4 C 14,4 C 62 % 1021,7 hPa 0,0 l/m 0 min 0 min 0 W/m 0,0 km/h (0 Bft) 100,00 %
18.09.2020 20:50 17,1 C 14,4 C 14,4 C 62 % 1021,7 hPa 0,0 l/m 0 min 0 min 0 W/m 0,0 km/h (0 Bft) 100,00 %
18.09.2020 20:52 17,0 C 14,4 C 14,4 C 62 % 1021,6 hPa 0,0 l/m 0 min 0 min 0 W/m 0,0 km/h (0 Bft) 100,00 %
18.09.2020 20:54 16,9 C 14,4 C 14,4 C 62 % 1021,7 hPa 0,0 l/m 0 min 0 min 0 W/m 0,0 km/h (0 Bft) 100,00 %
18.09.2020 20:56 16,9 C 14,4 C 14,4 C 63 % 1021,7 hPa 0,0 l/m 0 min 0 min 0 W/m 0,0 km/h (0 Bft) 97,87 %
18.09.2020 20:58 16,8 C 14,4 C 14,4 C 63 % 1021,7 hPa 0,0 l/m 0 min 0 min 0 W/m 0,0 km/h (0 Bft) 100,00 %
18.09.2020 21:00 16,8 C 14,4 C 14,4 C 63 % 1021,7 hPa 0,0 l/m 0 min 0 min 0 W/m 0,0 km/h (0 Bft) 100,00 %
18.09.2020 21:02 16,7 C 14,4 C 14,4 C 63 % 1021,7 hPa 0,0 l/m 0 min 0 min 0 W/m 0,0 km/h (0 Bft) 100,00 %
18.09.2020 21:04 16,7 C 14,4 C 14,4 C 64 % 1021,7 hPa 0,0 l/m 0 min 0 min 0 W/m 0,0 km/h (0 Bft) 98,00 %
18.09.2020 21:06 16,6 C 14,4 C 14,4 C 64 % 1021,7 hPa 0,0 l/m 0 min 0 min 0 W/m 0,0 km/h (0 Bft) 100,00 %
18.09.2020 21:08 16,6 C 14,4 C 14,4 C 64 % 1021,7 hPa 0,0 l/m 0 min 0 min 0 W/m 0,0 km/h (0 Bft) 100,00 %
18.09.2020 21:10 16,6 C 14,4 C 14,4 C 64 % 1021,7 hPa 0,0 l/m 0 min 0 min 0 W/m 0,0 km/h (0 Bft) 100,00 %
18.09.2020 21:12 16,4 C 14,4 C 13,9 C 64 % 1021,6 hPa 0,0 l/m 0 min 0 min 0 W/m 0,0 km/h (0 Bft) 56,52 %
18.09.2020 21:14 16,4 C 14,4 C 14,4 C 64 % 1021,7 hPa 0,0 l/m 0 min 0 min 0 W/m 0,0 km/h (0 Bft) 100,00 %
18.09.2020 21:16 16,3 C 14,4 C 14,4 C 64 % 1021,7 hPa 0,0 l/m 0 min 0 min 0 W/m 0,0 km/h (0 Bft) 100,00 %
18.09.2020 21:18 16,3 C 14,4 C 14,4 C 64 % 1021,6 hPa 0,0 l/m 0 min 0 min 0 W/m 0,0 km/h (0 Bft) 97,92 %
18.09.2020 21:20 16,2 C 14,4 C 13,9 C 64 % 1021,6 hPa 0,0 l/m 0 min 0 min 0 W/m 0,0 km/h (0 Bft) 100,00 %
18.09.2020 21:22 16,2 C 14,4 C 13,9 C 64 % 1021,6 hPa 0,0 l/m 0 min 0 min 0 W/m 3,2 km/h (1 Bft) 100,00 %
18.09.2020 21:24 16,2 C 14,4 C 13,9 C 65 % 1021,6 hPa 0,0 l/m 0 min 0 min 0 W/m 0,0 km/h (0 Bft) 100,00 %
18.09.2020 21:26 16,1 C 14,4 C 13,9 C 65 % 1021,6 hPa 0,0 l/m 0 min 0 min 0 W/m 0,0 km/h (0 Bft) 97,87 %
18.09.2020 21:28 16,1 C 13,9 C 13,9 C 65 % 1021,6 hPa 0,0 l/m 0 min 0 min 0 W/m 0,0 km/h (0 Bft) 100,00 %
18.09.2020 21:30 16,1 C 13,9 C 13,9 C 65 % 1021,6 hPa 0,0 l/m 0 min 0 min 0 W/m 3,2 km/h (1 Bft) 100,00 %
18.09.2020 21:32 16,0 C 13,9 C 13,9 C 65 % 1021,5 hPa 0,0 l/m 0 min 0 min 0 W/m 0,0 km/h (0 Bft) 100,00 %
18.09.2020 21:34 15,9 C 13,9 C 13,9 C 65 % 1021,6 hPa 0,0 l/m 0 min 0 min 0 W/m 0,0 km/h (0 Bft) 97,87 %
18.09.2020 21:36 15,9 C 13,9 C 13,9 C 65 % 1021,6 hPa 0,0 l/m 0 min 0 min 0 W/m 0,0 km/h (0 Bft) 97,83 %
18.09.2020 21:38 15,9 C 13,9 C 13,9 C 66 % 1021,6 hPa 0,0 l/m 0 min 0 min 0 W/m 0,0 km/h (0 Bft) 97,87 %
18.09.2020 21:40 15,8 C 13,9 C 13,9 C 66 % 1021,6 hPa 0,0 l/m 0 min 0 min 0 W/m 0,0 km/h (0 Bft) 97,56 %
18.09.2020 21:42 15,8 C 13,9 C 13,3 C 66 % 1021,6 hPa 0,0 l/m 0 min 0 min 0 W/m 0,0 km/h (0 Bft) 97,92 %
18.09.2020 21:44 15,7 C 13,3 C 13,3 C 66 % 1021,6 hPa 0,0 l/m 0 min 0 min 0 W/m 0,0 km/h (0 Bft) 97,92 %
18.09.2020 21:46 15,7 C 13,9 C 13,3 C 66 % 1021,6 hPa 0,0 l/m 0 min 0 min 0 W/m 3,2 km/h (1 Bft) 95,83 %
18.09.2020 21:48 15,7 C 13,9 C 13,3 C 66 % 1021,6 hPa 0,0 l/m 0 min 0 min 0 W/m 0,0 km/h (0 Bft) 97,92 %
18.09.2020 21:50 15,6 C 13,9 C 13,3 C 66 % 1021,6 hPa 0,0 l/m 0 min 0 min 0 W/m 0,0 km/h (0 Bft) 97,87 %
18.09.2020 21:52 15,6 C 13,9 C 13,3 C 66 % 1021,6 hPa 0,0 l/m 0 min 0 min 0 W/m 0,0 km/h (0 Bft) 97,92 %
18.09.2020 21:54 15,5 C 13,9 C 13,3 C 66 % 1021,6 hPa 0,0 l/m 0 min 0 min 0 W/m 0,0 km/h (0 Bft) 97,87 %
18.09.2020 21:56 15,4 C 13,9 C 13,3 C 66 % 1021,5 hPa 0,0 l/m 0 min 0 min 0 W/m 3,2 km/h (1 Bft) 97,87 %
18.09.2020 21:58 15,4 C 13,9 C 13,3 C 66 % 1021,5 hPa 0,0 l/m 0 min 0 min 0 W/m 3,2 km/h (1 Bft) 97,83 %
18.09.2020 22:00 15,4 C 13,3 C 13,3 C 67 % 1021,5 hPa 0,0 l/m 0 min 0 min 0 W/m 0,0 km/h (0 Bft) 97,62 %
18.09.2020 22:02 15,3 C 13,3 C 13,3 C 67 % 1021,5 hPa 0,0 l/m 0 min 0 min 0 W/m 0,0 km/h (0 Bft) 97,96 %
18.09.2020 22:04 15,3 C 13,3 C 13,3 C 67 % 1021,4 hPa 0,0 l/m 0 min 0 min 0 W/m 0,0 km/h (0 Bft) 96,00 %
18.09.2020 22:06 15,3 C 13,3 C 12,8 C 67 % 1021,4 hPa 0,0 l/m 0 min 0 min 0 W/m 0,0 km/h (0 Bft) 95,74 %
18.09.2020 22:08 15,2 C 13,3 C 12,8 C 67 % 1021,4 hPa 0,0 l/m 0 min 0 min 0 W/m 0,0 km/h (0 Bft) 95,74 %
18.09.2020 22:10 15,2 C 13,3 C 12,8 C 67 % 1021,4 hPa 0,0 l/m 0 min 0 min 0 W/m 0,0 km/h (0 Bft) 97,83 %
18.09.2020 22:12 15,1 C 13,3 C 12,8 C 67 % 1021,4 hPa 0,0 l/m 0 min 0 min 0 W/m 0,0 km/h (0 Bft) 97,87 %
18.09.2020 22:14 15,1 C 13,3 C 12,8 C 67 % 1021,4 hPa 0,0 l/m 0 min 0 min 0 W/m 0,0 km/h (0 Bft) 97,87 %
18.09.2020 22:16 15,1 C 12,8 C 12,8 C 67 % 1021,3 hPa 0,0 l/m 0 min 0 min 0 W/m 0,0 km/h (0 Bft) 97,56 %
18.09.2020 22:18 15,0 C 12,8 C 12,8 C 67 % 1021,3 hPa 0,0 l/m 0 min 0 min 0 W/m 0,0 km/h (0 Bft) 97,92 %
18.09.2020 22:20 15,0 C 12,8 C 12,8 C 68 % 1021,3 hPa 0,0 l/m 0 min 0 min 0 W/m 0,0 km/h (0 Bft) 97,92 %
18.09.2020 22:22 14,9 C 12,8 C 12,8 C 68 % 1021,3 hPa 0,0 l/m 0 min 0 min 0 W/m 0,0 km/h (0 Bft) 95,83 %
18.09.2020 22:24 14,9 C 12,8 C 12,8 C 68 % 1021,3 hPa 0,0 l/m 0 min 0 min 0 W/m 0,0 km/h (0 Bft) 97,87 %
18.09.2020 22:26 14,8 C 12,8 C 12,2 C 68 % 1021,3 hPa 0,0 l/m 0 min 0 min 0 W/m 0,0 km/h (0 Bft) 97,92 %
18.09.2020 22:28 14,8 C 12,8 C 12,2 C 68 % 1021,3 hPa 0,0 l/m 0 min 0 min 0 W/m 0,0 km/h (0 Bft) 97,92 %
18.09.2020 22:30 14,8 C 12,8 C 12,2 C 68 % 1021,3 hPa 0,0 l/m 0 min 0 min 0 W/m 0,0 km/h (0 Bft) 97,87 %
18.09.2020 22:32 14,7 C 12,8 C 12,2 C 68 % 1021,3 hPa 0,0 l/m 0 min 0 min 0 W/m 0,0 km/h (0 Bft) 97,87 %
18.09.2020 22:34 14,7 C 12,8 C 12,2 C 68 % 1021,3 hPa 0,0 l/m 0 min 0 min 0 W/m 0,0 km/h (0 Bft) 97,83 %
18.09.2020 22:36 14,7 C 12,8 C 12,2 C 68 % 1021,3 hPa 0,0 l/m 0 min 0 min 0 W/m 0,0 km/h (0 Bft) 95,74 %
18.09.2020 22:38 14,6 C 12,8 C 12,2 C 68 % 1021,3 hPa 0,0 l/m 0 min 0 min 0 W/m 0,0 km/h (0 Bft) 97,56 %
18.09.2020 22:40 14,6 C 12,8 C 12,2 C 68 % 1021,3 hPa 0,0 l/m 0 min 0 min 0 W/m 0,0 km/h (0 Bft) 97,92 %
18.09.2020 22:42 14,6 C 12,8 C 12,2 C 69 % 1021,3 hPa 0,0 l/m 0 min 0 min 0 W/m 0,0 km/h (0 Bft) 97,92 %
18.09.2020 22:44 14,5 C 12,8 C 12,2 C 69 % 1021,4 hPa 0,0 l/m 0 min 0 min 0 W/m 0,0 km/h (0 Bft) 97,92 %
18.09.2020 22:46 14,4 C 12,8 C 12,2 C 69 % 1021,3 hPa 0,0 l/m 0 min 0 min 0 W/m 0,0 km/h (0 Bft) 97,92 %
18.09.2020 22:48 14,4 C 12,8 C 12,2 C 69 % 1021,4 hPa 0,0 l/m 0 min 0 min 0 W/m 0,0 km/h (0 Bft) 97,87 %
18.09.2020 22:50 14,4 C 12,8 C 12,2 C 69 % 1021,4 hPa 0,0 l/m 0 min 0 min 0 W/m 0,0 km/h (0 Bft) 97,92 %
18.09.2020 22:52 14,3 C 12,2 C 12,2 C 69 % 1021,3 hPa 0,0 l/m 0 min 0 min 0 W/m 0,0 km/h (0 Bft) 95,74 %
18.09.2020 22:54 14,3 C 12,2 C 12,2 C 69 % 1021,3 hPa 0,0 l/m 0 min 0 min 0 W/m 0,0 km/h (0 Bft) 97,87 %
18.09.2020 22:56 14,3 C 12,2 C 12,2 C 70 % 1021,3 hPa 0,0 l/m 0 min 0 min 0 W/m 0,0 km/h (0 Bft) 97,83 %
18.09.2020 22:58 14,3 C 12,2 C 12,2 C 70 % 1021,3 hPa 0,0 l/m 0 min 0 min 0 W/m 0,0 km/h (0 Bft) 97,62 %
18.09.2020 23:00 14,3 C 12,2 C 12,2 C 70 % 1021,3 hPa 0,0 l/m 0 min 0 min 0 W/m 0,0 km/h (0 Bft) 97,87 %
18.09.2020 23:02 14,3 C 12,2 C 12,2 C 70 % 1021,3 hPa 0,0 l/m 0 min 0 min 0 W/m 0,0 km/h (0 Bft) 98,00 %
18.09.2020 23:04 14,2 C 12,2 C 12,2 C 70 % 1021,3 hPa 0,0 l/m 0 min 0 min 0 W/m 0,0 km/h (0 Bft) 95,92 %
18.09.2020 23:06 14,2 C 12,2 C 11,7 C 70 % 1021,3 hPa 0,0 l/m 0 min 0 min 0 W/m 0,0 km/h (0 Bft) 95,74 %
18.09.2020 23:08 14,1 C 12,2 C 11,7 C 70 % 1021,3 hPa 0,0 l/m 0 min 0 min 0 W/m 0,0 km/h (0 Bft) 95,65 %
18.09.2020 23:10 14,1 C 12,2 C 11,7 C 71 % 1021,4 hPa 0,0 l/m 0 min 0 min 0 W/m 0,0 km/h (0 Bft) 91,49 %
18.09.2020 23:12 14,1 C 12,2 C 11,7 C 71 % 1021,4 hPa 0,0 l/m 0 min 0 min 0 W/m 0,0 km/h (0 Bft) 95,74 %
18.09.2020 23:14 14,0 C 12,2 C 11,7 C 71 % 1021,4 hPa 0,0 l/m 0 min 0 min 0 W/m 0,0 km/h (0 Bft) 95,74 %
18.09.2020 23:16 14,0 C 12,2 C 12,2 C 71 % 1021,4 hPa 0,0 l/m 0 min 0 min 0 W/m 0,0 km/h (0 Bft) 95,12 %
18.09.2020 23:18 13,9 C 12,2 C 12,2 C 71 % 1021,4 hPa 0,0 l/m 0 min 0 min 0 W/m 0,0 km/h (0 Bft) 97,92 %
18.09.2020 23:20 13,9 C 12,2 C 12,2 C 71 % 1021,4 hPa 0,0 l/m 0 min 0 min 0 W/m 0,0 km/h (0 Bft) 97,96 %
18.09.2020 23:22 13,9 C 12,2 C 12,2 C 71 % 1021,3 hPa 0,0 l/m 0 min 0 min 0 W/m 0,0 km/h (0 Bft) 97,87 %
18.09.2020 23:24 13,8 C 12,2 C 12,2 C 71 % 1021,4 hPa 0,0 l/m 0 min 0 min 0 W/m 0,0 km/h (0 Bft) 97,92 %
18.09.2020 23:26 13,8 C 12,2 C 12,2 C 71 % 1021,3 hPa 0,0 l/m 0 min 0 min 0 W/m 0,0 km/h (0 Bft) 95,83 %
18.09.2020 23:28 13,8 C 12,2 C 11,7 C 71 % 1021,4 hPa 0,0 l/m 0 min 0 min 0 W/m 0,0 km/h (0 Bft) 91,67 %
18.09.2020 23:30 13,8 C 12,2 C 11,7 C 71 % 1021,4 hPa 0,0 l/m 0 min 0 min 0 W/m 0,0 km/h (0 Bft) 97,87 %
18.09.2020 23:32 13,7 C 12,2 C 11,7 C 72 % 1021,3 hPa 0,0 l/m 0 min 0 min 0 W/m 0,0 km/h (0 Bft) 97,56 %
18.09.2020 23:34 13,7 C 12,2 C 11,7 C 72 % 1021,3 hPa 0,0 l/m 0 min 0 min 0 W/m 0,0 km/h (0 Bft) 95,74 %
18.09.2020 23:36 13,7 C 12,2 C 11,7 C 72 % 1021,2 hPa 0,0 l/m 0 min 0 min 0 W/m 0,0 km/h (0 Bft) 95,83 %
18.09.2020 23:38 13,7 C 12,2 C 11,7 C 72 % 1021,2 hPa 0,0 l/m 0 min 0 min 0 W/m 0,0 km/h (0 Bft) 97,92 %
18.09.2020 23:40 13,6 C 12,2 C 11,7 C 72 % 1021,2 hPa 0,0 l/m 0 min 0 min 0 W/m 0,0 km/h (0 Bft) 95,83 %
18.09.2020 23:42 13,6 C 12,2 C 11,7 C 72 % 1021,2 hPa 0,0 l/m 0 min 0 min 0 W/m 0,0 km/h (0 Bft) 95,83 %
18.09.2020 23:44 13,6 C 12,2 C 11,7 C 72 % 1021,2 hPa 0,0 l/m 0 min 0 min 0 W/m 0,0 km/h (0 Bft) 93,62 %
18.09.2020 23:46 13,6 C 12,2 C 11,7 C 72 % 1021,2 hPa 0,0 l/m 0 min 0 min 0 W/m 0,0 km/h (0 Bft) 95,74 %
18.09.2020 23:48 13,5 C 12,2 C 12,2 C 72 % 1021,2 hPa 0,0 l/m 0 min 0 min 0 W/m 0,0 km/h (0 Bft) 95,74 %
18.09.2020 23:50 13,5 C 12,2 C 12,2 C 72 % 1021,1 hPa 0,0 l/m 0 min 0 min 0 W/m 0,0 km/h (0 Bft) 95,74 %
18.09.2020 23:52 13,5 C 12,2 C 12,2 C 73 % 1021,1 hPa 0,0 l/m 0 min 0 min 0 W/m 0,0 km/h (0 Bft) 95,74 %
18.09.2020 23:54 13,4 C 12,2 C 12,2 C 73 % 1021,1 hPa 0,0 l/m 0 min 0 min 0 W/m 0,0 km/h (0 Bft) 95,65 %
18.09.2020 23:56 13,4 C 12,2 C 12,2 C 73 % 1021,2 hPa 0,0 l/m 0 min 0 min 0 W/m 0,0 km/h (0 Bft) 95,24 %
18.09.2020 23:58 13,4 C 12,2 C 12,2 C 73 % 1021,2 hPa 0,0 l/m 0 min 0 min 0 W/m 3,2 km/h (1 Bft) 95,92 %
_ Min-Zeit 06:40 05:06 05:04 16:30 23:50 - - - - 00:18 07:02
Minimum _ 8,2 C 7,2 C 7,2 C 45 % 1021,1 hPa - - - - 0,0 km/h (0 Bft) 55,56 %
_ Max-Zeit 16:24 14:08 16:42 08:30 00:00 00:00 12:08 00:00 13:28 15:28 00:00
Maximum _ 26,4 C 31,1 C 30,0 C 89 % 1026,7 hPa 0,0 l/m 4 min 0 min 716 W/m 25,7 km/h
SO (4 Bft)
100,00 %
Durchschnitt _ 16,2 C 17,0 C 14,5 C 69 % 1023,9 hPa #0,0 l/m #8:20 h #0 min. 388 W/m 3,8 km/h (1 Bft) 97,41 %
© 2020 W. Hausmann